Darstellungsparameter: Aktuell verwendete Einstellungen:
Skalierung der Graphiken ... ?
xyx+y,   Skalierungsfaktor:      Skalierung: Modus: x, Faktor: 1
Darstellungszeitraum ... ?
Vom - - bis: - -   Zeitraum: 01.01.2014 - 31.12.2015
Min/Max/Avg-Anzeige ... ?
Zeige MMA aktuell
Zeige MMA Monat
Zeige MMA alles
Zeige --A aktuell
Zeige --A Monat
Zeige --A alles
Keine MMA-Anzeige
MMA:
Keine MMA-Graphiken
MMA-Basis: 01.01.2014 - 31.12.2015
Quicknavigation für Darstellung... ?
Tage:      1T, 2T, 3T, 5T -1T -2T -3T -5T +1T +2T +3T +5T
Wochen: 1W, 2W, 3W -1W -2W -3W +1W +2W +3W
Monate: 1M, 3M, 6M -1M -3M -6M +1M +3M +6M
Jahre:    1J, 3J, 5J, 10J -1J -3J -5J -10J +1J +3J +5J +10J
Nutze für die Darstellung ... ?
Originaldaten oder ...
Mittelwerte Minima Maxima auf...
Stundenbasis Tagesbasis Wochenbasis
Monatsbasis Jahresbasis      Datenbasis: Mittelwerte auf Tagesbasis
Darstellen als:
Statistik (Auto) Statistik J:M      Darstellung:
Zur Graphik,    zurück zur Übersicht aller Sensoren.
 
Tabellarische Datenbersicht: ?
 
Sensor: Nr:Datum:Temp:Feuchte:
Aussen-T/F 1 01-01-2014 00:00:00 5.50667 C 78.1250 %
2 02-01-2014 00:00:00 7.305 C 83.0417 %
3 03-01-2014 00:00:00 7.61917 C 80.7083 %
4 04-01-2014 00:00:00 6.67083 C 81.1667 %
5 05-01-2014 00:00:00 5.215 C 84.7750 %
6 06-01-2014 00:00:00 7.40083 C 82.0917 %
7 07-01-2014 00:00:00 9.8425 C 76.9000 %
8 08-01-2014 00:00:00 9.20583 C 78.7000 %
9 09-01-2014 00:00:00 8.2425 C 80.7417 %
10 10-01-2014 00:00:00 4.4125 C 80.8167 %
11 11-01-2014 00:00:00 2.6025 C 91.7167 %
12 12-01-2014 00:00:00 -0.045 C 94.9833 %
13 13-01-2014 00:00:00 2.99667 C 91.8750 %
14 14-01-2014 00:00:00 4.04583 C 92.4333 %
15 15-01-2014 00:00:00 3.3125 C 89.9583 %
16 16-01-2014 00:00:00 5.705 C 89.2750 %
17 17-01-2014 00:00:00 5.83833 C 89.3000 %
18 18-01-2014 00:00:00 3.36667 C 87.7667 %
19 19-01-2014 00:00:00 3.87 C 86.0250 %
20 20-01-2014 00:00:00 3.7075 C 91.5000 %
21 21-01-2014 00:00:00 2.94917 C 87.6250 %
22 22-01-2014 00:00:00 2.84 C 88.4083 %
23 23-01-2014 00:00:00 2.7675 C 88.6083 %
24 24-01-2014 00:00:00 3.13667 C 90.7667 %
25 25-01-2014 00:00:00 2.6675 C 86.8750 %
Sensor: Nr:Datum:Temp:Feuchte:
Aussen-T/F 26 26-01-2014 00:00:00 4.29417 C 73.8417 %
27 27-01-2014 00:00:00 3.30417 C 81.3333 %
28 28-01-2014 00:00:00 2.44917 C 80.9750 %
29 29-01-2014 00:00:00 1.085 C 77.1500 %
30 30-01-2014 00:00:00 1.07833 C 75.1167 %
31 31-01-2014 00:00:00 -0.26083 C 87.9000 %
32 01-02-2014 00:00:00 3.49583 C 85.1333 %
33 02-02-2014 00:00:00 2.86667 C 86.3083 %
34 03-02-2014 00:00:00 0.1375 C 93.6583 %
35 04-02-2014 00:00:00 3.19167 C 83.8000 %
36 05-02-2014 00:00:00 3.58 C 86.2667 %
37 06-02-2014 00:00:00 7.54583 C 64.0667 %
38 07-02-2014 00:00:00 7.695 C 68.6333 %
39 08-02-2014 00:00:00 5.565 C 76.7167 %
40 09-02-2014 00:00:00 4.44583 C 71.4333 %
41 10-02-2014 00:00:00 2.5125 C 82.2667 %
42 11-02-2014 00:00:00 4.48833 C 73.8417 %
43 12-02-2014 00:00:00 4.4 C 72.4167 %
44 13-02-2014 00:00:00 4.64333 C 83.1917 %
45 14-02-2014 00:00:00 4.95667 C 76.4083 %
46 15-02-2014 00:00:00 8.83083 C 70.1000 %
47 16-02-2014 00:00:00 6.62417 C 69.2000 %
48 17-02-2014 00:00:00 2.95917 C 85.3083 %
49 18-02-2014 00:00:00 3.01333 C 88.3333 %
50 19-02-2014 00:00:00 7.12 C 74.4167 %
Sensor: Nr:Datum:Temp:Feuchte:
Aussen-T/F 51 20-02-2014 00:00:00 8.25417 C 69.8917 %
52 21-02-2014 00:00:00 6.84167 C 74.6500 %
53 22-02-2014 00:00:00 4.36667 C 79.1333 %
54 23-02-2014 00:00:00 5.66583 C 71.6167 %
55 24-02-2014 00:00:00 4.7475 C 73.8083 %
56 25-02-2014 00:00:00 5.91417 C 73.5417 %
57 26-02-2014 00:00:00 8.12167 C 68.4083 %
58 27-02-2014 00:00:00 4.9375 C 77.7583 %
59 28-02-2014 00:00:00 5.94417 C 78.4083 %
60 01-03-2014 00:00:00 5.01417 C 81.1167 %
61 02-03-2014 00:00:00 3.36083 C 78.8167 %
62 03-03-2014 00:00:00 4.525 C 77.9167 %
63 04-03-2014 00:00:00 3.62583 C 78.8167 %
64 05-03-2014 00:00:00 4.83083 C 74.8750 %
65 06-03-2014 00:00:00 3.69167 C 80.2333 %
66 07-03-2014 00:00:00 4.4395 C 75.8151 %
67 08-03-2014 00:00:00 6.50583 C 72.3833 %
68 09-03-2014 00:00:00 6.5075 C 69.7750 %
69 10-03-2014 00:00:00 6.72583 C 67.7083 %
70 11-03-2014 00:00:00 7.665 C 70.2000 %
71 12-03-2014 00:00:00 8.435 C 65.1333 %
72 13-03-2014 00:00:00 7.41 C 66.7667 %
73 14-03-2014 00:00:00 7.39833 C 68.3167 %
74 15-03-2014 00:00:00 8.405 C 65.7000 %
75 16-03-2014 00:00:00 11.44167 C 61.8500 %
Sensor: Nr:Datum:Temp:Feuchte:
Aussen-T/F 76 17-03-2014 00:00:00 10.15 C 68.0000 %
77 18-03-2014 00:00:00 9.12167 C 70.5083 %
78 19-03-2014 00:00:00 12.3525 C 55.3000 %
79 20-03-2014 00:00:00 12.49917 C 57.2000 %
80 21-03-2014 00:00:00 12.845 C 52.9667 %
81 22-03-2014 00:00:00 8.38917 C 74.2417 %
82 23-03-2014 00:00:00 5.71167 C 72.8250 %
83 24-03-2014 00:00:00 5.77583 C 66.6500 %
84 25-03-2014 00:00:00 4.55417 C 70.1917 %
85 26-03-2014 00:00:00 4.3175 C 69.4500 %
86 27-03-2014 00:00:00 7.81 C 64.2333 %
87 28-03-2014 00:00:00 10.475 C 55.4333 %
88 29-03-2014 00:00:00 10.83583 C 59.0833 %
89 30-03-2014 00:00:00 10.71391 C 60.6957 %
90 31-03-2014 00:00:00 13.25667 C 54.7500 %
91 01-04-2014 00:00:00 14.30833 C 53.5667 %
92 02-04-2014 00:00:00 14.02083 C 57.7250 %
93 03-04-2014 00:00:00 14.61917 C 56.6417 %
94 04-04-2014 00:00:00 15.37833 C 58.2833 %
95 05-04-2014 00:00:00 13.515 C 69.1583 %
96 06-04-2014 00:00:00 12.56833 C 67.4750 %
97 07-04-2014 00:00:00 17.47333 C 54.4333 %
98 08-04-2014 00:00:00 12.06833 C 53.4083 %
99 09-04-2014 00:00:00 8.37167 C 77.6667 %
100 10-04-2014 00:00:00 11.6175 C 64.2333 %
Sensor: Nr:Datum:Temp:Feuchte:
Aussen-T/F 101 11-04-2014 00:00:00 12.46 C 65.9000 %
102 12-04-2014 00:00:00 13.47667 C 54.7250 %
103 13-04-2014 00:00:00 11.77 C 56.6917 %
104 14-04-2014 00:00:00 10.39833 C 56.4750 %
105 15-04-2014 00:00:00 7.21917 C 60.6750 %
106 16-04-2014 00:00:00 8.42083 C 58.9667 %
107 17-04-2014 00:00:00 10.6725 C 52.8167 %
108 18-04-2014 00:00:00 11.72333 C 49.8833 %
109 19-04-2014 00:00:00 11.07333 C 57.7083 %
110 20-04-2014 00:00:00 15.2525 C 56.9667 %
111 21-04-2014 00:00:00 12.4075 C 66.8500 %
112 22-04-2014 00:00:00 13.85083 C 70.9167 %
113 23-04-2014 00:00:00 14.20417 C 68.9250 %
114 24-04-2014 00:00:00 16.0275 C 64.6750 %
115 25-04-2014 00:00:00 17.41917 C 61.3833 %
116 26-04-2014 00:00:00 15.7325 C 58.6167 %
117 27-04-2014 00:00:00 13.7605 C 68.0420 %
118 28-04-2014 00:00:00 13.58417 C 63.8250 %
119 29-04-2014 00:00:00 13.94417 C 76.6167 %
120 30-04-2014 00:00:00 14.89091 C 71.2231 %
121 01-05-2014 00:00:00 15.1 C 66.5417 %
122 02-05-2014 00:00:00 12.12917 C 71.6667 %
123 03-05-2014 00:00:00 12.01833 C 46.6583 %
124 04-05-2014 00:00:00 11.0725 C 53.3500 %
125 05-05-2014 00:00:00 13.77083 C 53.8583 %
Sensor: Nr:Datum:Temp:Feuchte:
Aussen-T/F 126 06-05-2014 00:00:00 14.19417 C 57.6333 %
127 07-05-2014 00:00:00 13.45917 C 72.5500 %
128 08-05-2014 00:00:00 12.2475 C 73.3750 %
129 09-05-2014 00:00:00 13.70083 C 71.2167 %
130 10-05-2014 00:00:00 12.32167 C 67.7917 %
131 11-05-2014 00:00:00 11.89 C 66.5333 %
132 12-05-2014 00:00:00 11.46167 C 58.3000 %
133 13-05-2014 00:00:00 10.64583 C 70.4750 %
134 14-05-2014 00:00:00 11.03083 C 64.9333 %
135 15-05-2014 00:00:00 10.38417 C 64.4083 %
136 16-05-2014 00:00:00 14.005 C 56.9083 %
137 17-05-2014 00:00:00 14.52 C 58.3083 %
138 18-05-2014 00:00:00 15.88333 C 57.9583 %
139 19-05-2014 00:00:00 18.905 C 54.6000 %
140 20-05-2014 00:00:00 20.5625 C 47.7167 %
141 21-05-2014 00:00:00 21.21417 C 49.9583 %
142 22-05-2014 00:00:00 20.7625 C 51.8667 %
143 23-05-2014 00:00:00 16.46 C 76.2500 %
144 24-05-2014 00:00:00 15.36083 C 67.1083 %
145 25-05-2014 00:00:00 16.33583 C 60.2917 %
146 26-05-2014 00:00:00 17.66917 C 61.6250 %
147 27-05-2014 00:00:00 15.22667 C 84.1333 %
148 28-05-2014 00:00:00 14.83333 C 69.7833 %
149 29-05-2014 00:00:00 13.815 C 72.2083 %
150 30-05-2014 00:00:00 14.52583 C 50.4083 %
Sensor: Nr:Datum:Temp:Feuchte:
Aussen-T/F 151 31-05-2014 00:00:00 14.00583 C 58.2833 %
152 01-06-2014 00:00:00 16.22167 C 52.6000 %
153 02-06-2014 00:00:00 17.8275 C 49.1333 %
154 03-06-2014 00:00:00 16.55417 C 55.6250 %
155 04-06-2014 00:00:00 15.92417 C 69.9083 %
156 05-06-2014 00:00:00 15.26 C 55.0083 %
157 06-06-2014 00:00:00 17.89417 C 53.9500 %
158 07-06-2014 00:00:00 21.3125 C 55.1667 %
159 08-06-2014 00:00:00 25.15833 C 53.3583 %
160 09-06-2014 00:00:00 26.89917 C 51.4583 %
161 10-06-2014 00:00:00 24.50083 C 52.5333 %
162 11-06-2014 00:00:00 21.1525 C 63.8667 %
163 12-06-2014 00:00:00 21.07 C 51.5917 %
164 13-06-2014 00:00:00 19.54333 C 51.4250 %
165 14-06-2014 00:00:00 18.24833 C 47.8083 %
166 15-06-2014 00:00:00 17.39 C 51.1500 %
167 16-06-2014 00:00:00 16.1625 C 57.3417 %
168 17-06-2014 00:00:00 18.13 C 49.2417 %
169 18-06-2014 00:00:00 18.77417 C 54.6167 %
170 19-06-2014 00:00:00 16.59667 C 57.9417 %
171 20-06-2014 00:00:00 15.5075 C 59.4083 %
172 21-06-2014 00:00:00 17.8575 C 48.0167 %
173 22-06-2014 00:00:00 17.71833 C 49.3250 %
174 23-06-2014 00:00:00 17.73917 C 49.0750 %
175 24-06-2014 00:00:00 16.37083 C 62.7333 %
Sensor: Nr:Datum:Temp:Feuchte:
Aussen-T/F 176 25-06-2014 00:00:00 16.6625 C 55.5583 %
177 26-06-2014 00:00:00 17.295 C 48.7333 %
178 27-06-2014 00:00:00 17.98 C 51.8500 %
179 28-06-2014 00:00:00 16.63583 C 73.8917 %
180 29-06-2014 00:00:00 14.55333 C 85.9917 %
181 30-06-2014 00:00:00 16.2075 C 65.0917 %
182 01-07-2014 00:00:00 15.93 C 56.7500 %
183 02-07-2014 00:00:00 17.66083 C 51.8083 %
184 03-07-2014 00:00:00 20.67083 C 47.1750 %
185 04-07-2014 00:00:00 20.79667 C 51.3667 %
186 05-07-2014 00:00:00 20.7075 C 60.1333 %
187 06-07-2014 00:00:00 24.195 C 55.3667 %
188 07-07-2014 00:00:00 21.00667 C 52.2417 %
189 08-07-2014 00:00:00 15.4325 C 81.9333 %
190 09-07-2014 00:00:00 12.565 C 90.3333 %
191 10-07-2014 00:00:00 17.89833 C 77.5917 %
192 11-07-2014 00:00:00 19.6525 C 72.4000 %
193 12-07-2014 00:00:00 19.19417 C 71.7500 %
194 13-07-2014 00:00:00 19.30917 C 70.4417 %
195 14-07-2014 00:00:00 19.5325 C 63.9500 %
196 15-07-2014 00:00:00 20.23167 C 61.1500 %
197 16-07-2014 00:00:00 23.38417 C 54.8917 %
198 17-07-2014 00:00:00 23.18167 C 56.1500 %
199 18-07-2014 00:00:00 24.74583 C 52.4583 %
200 19-07-2014 00:00:00 25.02083 C 49.1667 %
Sensor: Nr:Datum:Temp:Feuchte:
Aussen-T/F 201 20-07-2014 00:00:00 23.255 C 62.9250 %
202 21-07-2014 00:00:00 20.67917 C 76.0833 %
203 22-07-2014 00:00:00 23.93167 C 66.2750 %
204 23-07-2014 00:00:00 24.08167 C 57.3583 %
205 24-07-2014 00:00:00 20.5825 C 59.2333 %
206 25-07-2014 00:00:00 20.035 C 65.2583 %
207 26-07-2014 00:00:00 21.4275 C 61.7750 %
208 27-07-2014 00:00:00 22.06667 C 60.3583 %
209 28-07-2014 00:00:00 21.97917 C 62.9167 %
210 29-07-2014 00:00:00 20.16333 C 85.0500 %
211 30-07-2014 00:00:00 20.2625 C 72.3750 %
212 31-07-2014 00:00:00 21.765 C 58.8083 %
213 01-08-2014 00:00:00 21.43167 C 62.8000 %
214 02-08-2014 00:00:00 20.69 C 68.4917 %
215 03-08-2014 00:00:00 21.8375 C 62.9583 %
216 04-08-2014 00:00:00 19.43667 C 70.3250 %
217 05-08-2014 00:00:00 19.66167 C 65.3333 %
218 06-08-2014 00:00:00 17.87 C 70.1750 %
219 07-08-2014 00:00:00 19.71583 C 71.2417 %
220 08-08-2014 00:00:00 18.99244 C 76.3109 %
221 09-08-2014 00:00:00 20.905 C 64.4167 %
222 10-08-2014 00:00:00 19.14333 C 76.2833 %
223 11-08-2014 00:00:00 17.42917 C 68.8917 %
224 12-08-2014 00:00:00 18.35 C 56.2083 %
225 13-08-2014 00:00:00 16.19917 C 76.1250 %
Sensor: Nr:Datum:Temp:Feuchte:
Aussen-T/F 226 14-08-2014 00:00:00 16.49917 C 71.6750 %
227 15-08-2014 00:00:00 14.77167 C 80.5083 %
228 16-08-2014 00:00:00 15.25667 C 79.6417 %
229 17-08-2014 00:00:00 15.9275 C 65.1333 %
230 18-08-2014 00:00:00 16.58583 C 59.3583 %
231 19-08-2014 00:00:00 13.895 C 70.0500 %
232 20-08-2014 00:00:00 13.07083 C 69.7583 %
233 21-08-2014 00:00:00 13.27167 C 69.0000 %
234 22-08-2014 00:00:00 14.33583 C 63.0167 %
235 23-08-2014 00:00:00 14.56 C 69.4917 %
236 24-08-2014 00:00:00 11.57667 C 85.1000 %
237 25-08-2014 00:00:00 13.18167 C 84.9333 %
238 26-08-2014 00:00:00 14.67667 C 89.2083 %
239 27-08-2014 00:00:00 15.95583 C 79.6417 %
240 28-08-2014 00:00:00 15.91167 C 80.5250 %
241 29-08-2014 00:00:00 18.03333 C 76.0000 %
242 30-08-2014 00:00:00 16.32917 C 79.4417 %
243 31-08-2014 00:00:00 14.66 C 83.3833 %
244 01-09-2014 00:00:00 14.71333 C 80.6500 %
245 02-09-2014 00:00:00 14.64 C 78.9167 %
246 03-09-2014 00:00:00 15.14 C 76.4500 %
247 04-09-2014 00:00:00 17.0775 C 74.2667 %
248 05-09-2014 00:00:00 18.66833 C 75.6083 %
249 06-09-2014 00:00:00 18.33917 C 76.5167 %
250 07-09-2014 00:00:00 19.26417 C 69.1417 %
Sensor: Nr:Datum:Temp:Feuchte:
Aussen-T/F 251 08-09-2014 00:00:00 18.5175 C 67.4917 %
252 09-09-2014 00:00:00 16.67417 C 64.7000 %
253 10-09-2014 00:00:00 14.83583 C 66.0250 %
254 11-09-2014 00:00:00 15.42417 C 66.8583 %
255 12-09-2014 00:00:00 14.2075 C 70.2000 %
256 13-09-2014 00:00:00 16.16167 C 74.0667 %
257 14-09-2014 00:00:00 17.56417 C 69.1833 %
258 15-09-2014 00:00:00 16.5525 C 75.1833 %
259 16-09-2014 00:00:00 17.40583 C 74.2083 %
260 17-09-2014 00:00:00 16.28917 C 78.0000 %
261 18-09-2014 00:00:00 17.725 C 83.2083 %
262 19-09-2014 00:00:00 18.6325 C 82.2083 %
263 20-09-2014 00:00:00 17.03083 C 86.5333 %
264 21-09-2014 00:00:00 15.27583 C 87.6250 %
265 22-09-2014 00:00:00 12.79333 C 73.3750 %
266 23-09-2014 00:00:00 10.37083 C 78.9833 %
267 24-09-2014 00:00:00 11.275 C 78.3750 %
268 25-09-2014 00:00:00 13.71917 C 72.4500 %
269 26-09-2014 00:00:00 14.2225 C 76.1083 %
270 27-09-2014 00:00:00 15.72083 C 78.0000 %
271 28-09-2014 00:00:00 14.60417 C 81.9750 %
272 29-09-2014 00:00:00 15.5 C 83.5250 %
273 30-09-2014 00:00:00 16.74667 C 82.0667 %
274 01-10-2014 00:00:00 15.65667 C 83.6083 %
275 02-10-2014 00:00:00 14.43333 C 84.2583 %
Sensor: Nr:Datum:Temp:Feuchte:
Aussen-T/F 276 03-10-2014 00:00:00 13.82917 C 83.5917 %
277 04-10-2014 00:00:00 12.6425 C 83.8250 %
278 05-10-2014 00:00:00 13.02917 C 82.9917 %
279 06-10-2014 00:00:00 14.35833 C 77.2833 %
280 07-10-2014 00:00:00 13.26667 C 84.4833 %
281 08-10-2014 00:00:00 13.03417 C 92.3583 %
282 09-10-2014 00:00:00 15.08333 C 91.5583 %
283 10-10-2014 00:00:00 13.88 C 89.8167 %
284 11-10-2014 00:00:00 14.66417 C 86.5417 %
285 12-10-2014 00:00:00 12.50333 C 86.5667 %
286 13-10-2014 00:00:00 14.65667 C 87.5917 %
287 14-10-2014 00:00:00 12.4325 C 86.2667 %
288 15-10-2014 00:00:00 11.4075 C 89.0583 %
289 16-10-2014 00:00:00 13.5925 C 88.3917 %
290 17-10-2014 00:00:00 13.47833 C 86.3917 %
291 18-10-2014 00:00:00 12.195 C 90.8167 %
292 19-10-2014 00:00:00 14.28333 C 85.3750 %
293 20-10-2014 00:00:00 14.38917 C 74.1667 %
294 21-10-2014 00:00:00 11.20083 C 75.2750 %
295 22-10-2014 00:00:00 8.1 C 78.4833 %
296 23-10-2014 00:00:00 9.89667 C 79.4333 %
297 24-10-2014 00:00:00 10.00333 C 83.3000 %
298 25-10-2014 00:00:00 11.1725 C 86.7750 %
299 26-10-2014 00:00:00 10.8064 C 88.2400 %
300 27-10-2014 00:00:00 8.985 C 88.6167 %
Sensor: Nr:Datum:Temp:Feuchte:
Aussen-T/F 301 28-10-2014 00:00:00 7.8375 C 74.6167 %
302 29-10-2014 00:00:00 8.90333 C 82.7167 %
303 30-10-2014 00:00:00 11.62417 C 89.8833 %
304 31-10-2014 00:00:00 11.50917 C 89.3417 %
305 01-11-2014 00:00:00 10.5225 C 91.9333 %
306 02-11-2014 00:00:00 10.71667 C 90.0417 %
307 03-11-2014 00:00:00 13.025 C 80.6083 %
308 04-11-2014 00:00:00 10.72833 C 91.1417 %
309 05-11-2014 00:00:00 8.93667 C 89.0583 %
310 06-11-2014 00:00:00 5.9725 C 85.6667 %
311 07-11-2014 00:00:00 5.22917 C 87.8250 %
312 08-11-2014 00:00:00 7.955 C 83.9750 %
313 09-11-2014 00:00:00 6.18667 C 91.2250 %
314 10-11-2014 00:00:00 8.08 C 90.5167 %
315 11-11-2014 00:00:00 8.05167 C 86.8417 %
316 12-11-2014 00:00:00 9.01917 C 87.1250 %
317 13-11-2014 00:00:00 9.21 C 90.1667 %
318 14-11-2014 00:00:00 9.9875 C 79.0833 %
319 15-11-2014 00:00:00 9.22083 C 87.0500 %
320 16-11-2014 00:00:00 8.2275 C 94.2500 %
321 17-11-2014 00:00:00 8.16083 C 93.8250 %
322 18-11-2014 00:00:00 8.18583 C 91.6083 %
323 19-11-2014 00:00:00 7.55 C 90.6417 %
324 20-11-2014 00:00:00 6.13167 C 86.5333 %
325 21-11-2014 00:00:00 4.68583 C 89.6833 %
Sensor: Nr:Datum:Temp:Feuchte:
Aussen-T/F 326 22-11-2014 00:00:00 5.0825 C 90.6667 %
327 23-11-2014 00:00:00 5.43667 C 93.0500 %
328 24-11-2014 00:00:00 6.43417 C 88.6917 %
329 25-11-2014 00:00:00 2.7725 C 94.0417 %
330 26-11-2014 00:00:00 4.77167 C 78.6500 %
331 27-11-2014 00:00:00 5.515 C 84.1250 %
332 28-11-2014 00:00:00 5.085 C 80.9083 %
333 29-11-2014 00:00:00 4.1225 C 76.3000 %
334 30-11-2014 00:00:00 3.5875 C 80.5583 %
335 01-12-2014 00:00:00 2.88167 C 80.1500 %
336 02-12-2014 00:00:00 1.2775 C 80.5167 %
337 03-12-2014 00:00:00 1.37917 C 88.1667 %
338 04-12-2014 00:00:00 1.855 C 84.1917 %
339 05-12-2014 00:00:00 3.6275 C 84.5500 %
340 06-12-2014 00:00:00 3.9425 C 88.7167 %
341 07-12-2014 00:00:00 3.6 C 85.1667 %
342 08-12-2014 00:00:00 2.20167 C 88.2083 %
343 09-12-2014 00:00:00 1.87333 C 93.5500 %
344 10-12-2014 00:00:00 3.53667 C 82.2500 %
345 11-12-2014 00:00:00 5.345 C 81.6500 %
346 12-12-2014 00:00:00 8.3375 C 73.7417 %
347 13-12-2014 00:00:00 3.93083 C 94.2750 %
348 14-12-2014 00:00:00 2.09344 C 93.4344 %
349 15-12-2014 00:00:00 2.64417 C 88.8417 %
350 16-12-2014 00:00:00 5.34454 C 84.8403 %
Sensor: Nr:Datum:Temp:Feuchte:
Aussen-T/F 351 17-12-2014 00:00:00 5.2575 C 85.2500 %
352 18-12-2014 00:00:00 11.2075 C 79.4583 %
353 19-12-2014 00:00:00 9.8525 C 74.0083 %
354 20-12-2014 00:00:00 5.07917 C 74.9583 %
355 21-12-2014 00:00:00 5.61176 C 78.9496 %
356 22-12-2014 00:00:00 7.795 C 74.1500 %
357 23-12-2014 00:00:00 9.51333 C 70.7417 %
358 24-12-2014 00:00:00 7.80833 C 72.6167 %
359 25-12-2014 00:00:00 4.1625 C 78.4917 %
360 26-12-2014 00:00:00 2.16667 C 93.7917 %
361 27-12-2014 00:00:00 0.65333 C 91.3250 %
362 28-12-2014 00:00:00 -3.11 C 63.8667 %
363 29-12-2014 00:00:00 -1.09417 C 80.2000 %
364 30-12-2014 00:00:00 1.00917 C 85.8333 %
365 31-12-2014 00:00:00 2.03667 C 89.7917 %
366 01-01-2015 00:00:00 1.09917 C 91.6083 %
367 02-01-2015 00:00:00 2.28833 C 81.9083 %
368 03-01-2015 00:00:00 1.56917 C 89.7000 %
369 04-01-2015 00:00:00 2.34 C 88.6583 %
370 05-01-2015 00:00:00 -1.0425 C 91.8583 %
371 06-01-2015 00:00:00 -1.56083 C 89.2667 %
372 07-01-2015 00:00:00 1.58583 C 87.1583 %
373 08-01-2015 00:00:00 5.70417 C 86.5583 %
374 09-01-2015 00:00:00 8.4875 C 74.8583 %
375 10-01-2015 00:00:00 12.01667 C 67.4167 %
Sensor: Nr:Datum:Temp:Feuchte:
Aussen-T/F 376 11-01-2015 00:00:00 4.37 C 61.3667 %
377 12-01-2015 00:00:00 6.34917 C 69.2250 %
378 13-01-2015 00:00:00 9.21583 C 60.7333 %
379 14-01-2015 00:00:00 4.66 C 76.2917 %
380 15-01-2015 00:00:00 8.05 C 67.8417 %
381 16-01-2015 00:00:00 6.22 C 78.4250 %
382 17-01-2015 00:00:00 2.72417 C 85.6167 %
383 18-01-2015 00:00:00 1.15 C 74.1750 %
384 19-01-2015 00:00:00 0.40417 C 80.5083 %
385 20-01-2015 00:00:00 0.44833 C 82.7833 %
386 21-01-2015 00:00:00 -0.72 C 78.1000 %
387 22-01-2015 00:00:00 0.885 C 71.2833 %
388 23-01-2015 00:00:00 0.86333 C 79.0417 %
389 24-01-2015 00:00:00 0.37417 C 85.8500 %
390 25-01-2015 00:00:00 1.53333 C 90.9000 %
391 26-01-2015 00:00:00 2.28917 C 93.3167 %
392 27-01-2015 00:00:00 3.08417 C 89.7167 %
393 28-01-2015 00:00:00 3.30667 C 85.1833 %
394 29-01-2015 00:00:00 2.22083 C 80.0167 %
395 30-01-2015 00:00:00 1.16333 C 84.4583 %
396 31-01-2015 00:00:00 1.24833 C 77.4833 %
397 01-02-2015 00:00:00 0.8025 C 88.2167 %
398 02-02-2015 00:00:00 1.6425 C 81.6583 %
399 03-02-2015 00:00:00 0.70917 C 78.3833 %
400 04-02-2015 00:00:00 -0.89583 C 77.4417 %
Sensor: Nr:Datum:Temp:Feuchte:
Aussen-T/F 401 05-02-2015 00:00:00 -1.95583 C 67.3417 %
402 06-02-2015 00:00:00 -0.53833 C 54.3833 %
403 07-02-2015 00:00:00 -1.495 C 65.9833 %
404 08-02-2015 00:00:00 2.14833 C 71.8583 %
405 09-02-2015 00:00:00 3.22167 C 83.9500 %
406 10-02-2015 00:00:00 4.31833 C 84.9917 %
407 11-02-2015 00:00:00 3.44417 C 74.2167 %
408 12-02-2015 00:00:00 2.35583 C 77.4917 %
409 13-02-2015 00:00:00 1.6825 C 78.6167 %
410 14-02-2015 00:00:00 2.955 C 76.5583 %
411 15-02-2015 00:00:00 0.83417 C 79.7083 %
412 16-02-2015 00:00:00 1.375 C 77.0917 %
413 17-02-2015 00:00:00 2.8875 C 76.0583 %
414 18-02-2015 00:00:00 3.53167 C 78.0250 %
415 19-02-2015 00:00:00 0.41083 C 77.0500 %
416 20-02-2015 00:00:00 6.3125 C 63.5083 %
417 21-02-2015 00:00:00 4.67167 C 74.6833 %
418 22-02-2015 00:00:00 3.25333 C 72.5333 %
419 23-02-2015 00:00:00 2.82333 C 82.9333 %
420 24-02-2015 00:00:00 4.16917 C 75.1833 %
421 25-02-2015 00:00:00 3.6775 C 82.3250 %
422 26-02-2015 00:00:00 5.68083 C 82.3917 %
423 27-02-2015 00:00:00 4.77667 C 85.3250 %
424 28-02-2015 00:00:00 2.12083 C 77.7167 %
425 01-03-2015 00:00:00 7.28917 C 69.4583 %
Sensor: Nr:Datum:Temp:Feuchte:
Aussen-T/F 426 02-03-2015 00:00:00 5.68167 C 69.3917 %
427 03-03-2015 00:00:00 4.9725 C 68.5583 %
428 04-03-2015 00:00:00 3.96333 C 75.3500 %
429 05-03-2015 00:00:00 4.70417 C 71.3750 %
430 06-03-2015 00:00:00 3.62667 C 75.5083 %
431 07-03-2015 00:00:00 4.36667 C 72.3417 %
432 08-03-2015 00:00:00 5.24417 C 74.3417 %
433 09-03-2015 00:00:00 7.20833 C 73.7333 %
434 10-03-2015 00:00:00 5.26667 C 93.7583 %
435 11-03-2015 00:00:00 3.94917 C 79.4417 %
436 12-03-2015 00:00:00 3.2625 C 73.6750 %
437 13-03-2015 00:00:00 3.52667 C 65.1000 %
438 14-03-2015 00:00:00 4.09417 C 70.8833 %
439 15-03-2015 00:00:00 4.17667 C 81.2500 %
440 16-03-2015 00:00:00 4.02833 C 78.7833 %
441 17-03-2015 00:00:00 6.42917 C 74.4250 %
442 18-03-2015 00:00:00 8.1825 C 73.3667 %
443 19-03-2015 00:00:00 7.68583 C 80.3250 %
444 20-03-2015 00:00:00 7.97833 C 68.2250 %
445 21-03-2015 00:00:00 5.58917 C 79.9000 %
446 22-03-2015 00:00:00 4.97851 C 70.1157 %
447 23-03-2015 00:00:00 3.63333 C 72.3083 %
448 24-03-2015 00:00:00 6.91333 C 68.1583 %
449 25-03-2015 00:00:00 7.45167 C 69.7333 %
450 26-03-2015 00:00:00 6.89083 C 64.1917 %
Sensor: Nr:Datum:Temp:Feuchte:
Aussen-T/F 451 27-03-2015 00:00:00 7.275 C 60.9667 %
452 28-03-2015 00:00:00 8.14583 C 66.5167 %
453 29-03-2015 00:00:00 11.21043 C 69.8870 %
454 30-03-2015 00:00:00 7.73417 C 58.6750 %
455 31-03-2015 00:00:00 9.57083 C 61.3917 %
456 01-04-2015 00:00:00 5.7575 C 57.7667 %
457 02-04-2015 00:00:00 5.965 C 61.6500 %
458 03-04-2015 00:00:00 5.47917 C 60.3083 %
459 04-04-2015 00:00:00 5.84833 C 65.1583 %
460 05-04-2015 00:00:00 4.70167 C 58.9667 %
461 06-04-2015 00:00:00 5.09667 C 62.3833 %
462 07-04-2015 00:00:00 5.6075 C 66.7833 %
463 08-04-2015 00:00:00 8.03333 C 65.2833 %
464 09-04-2015 00:00:00 10.68333 C 66.2667 %
465 10-04-2015 00:00:00 12.5975 C 58.8333 %
466 11-04-2015 00:00:00 12.1425 C 55.4250 %
467 12-04-2015 00:00:00 11.29917 C 58.6333 %
468 13-04-2015 00:00:00 11.2925 C 53.8667 %
469 14-04-2015 00:00:00 13.26667 C 54.8333 %
470 15-04-2015 00:00:00 16.03583 C 52.5500 %
471 16-04-2015 00:00:00 14.85667 C 54.9750 %
472 17-04-2015 00:00:00 11.28 C 53.7833 %
473 18-04-2015 00:00:00 8.30333 C 53.1250 %
474 19-04-2015 00:00:00 9.43083 C 51.3583 %
475 20-04-2015 00:00:00 11.8275 C 49.4500 %
Sensor: Nr:Datum:Temp:Feuchte:
Aussen-T/F 476 21-04-2015 00:00:00 13.27833 C 49.4167 %
477 22-04-2015 00:00:00 10.60917 C 54.1250 %
478 23-04-2015 00:00:00 10.63083 C 58.6417 %
479 24-04-2015 00:00:00 13.17667 C 52.5417 %
480 25-04-2015 00:00:00 12.9125 C 66.3667 %
481 26-04-2015 00:00:00 15.42667 C 65.8083 %
482 27-04-2015 00:00:00 10.30417 C 87.7167 %
483 28-04-2015 00:00:00 8.89333 C 63.8833 %
484 29-04-2015 00:00:00 8.29083 C 62.8750 %
485 30-04-2015 00:00:00 9.585 C 68.6333 %
486 01-05-2015 00:00:00 8.0975 C 73.7083 %
487 02-05-2015 00:00:00 9.81083 C 66.7417 %
488 03-05-2015 00:00:00 13.81833 C 78.0667 %
489 04-05-2015 00:00:00 16.06417 C 72.1250 %
490 05-05-2015 00:00:00 18.12917 C 62.4750 %
491 06-05-2015 00:00:00 13.25833 C 57.6083 %
492 07-05-2015 00:00:00 13.39 C 52.4500 %
493 08-05-2015 00:00:00 14.455 C 53.7000 %
494 09-05-2015 00:00:00 15.36583 C 62.0667 %
495 10-05-2015 00:00:00 14.795 C 62.0917 %
496 11-05-2015 00:00:00 17.42583 C 57.7500 %
497 12-05-2015 00:00:00 17.955 C 59.3167 %
498 13-05-2015 00:00:00 14.00083 C 55.4667 %
499 14-05-2015 00:00:00 13.93833 C 58.5750 %
500 15-05-2015 00:00:00 15.25583 C 63.9333 %
Sensor: Nr:Datum:Temp:Feuchte:
Aussen-T/F 501 16-05-2015 00:00:00 12.21167 C 62.2833 %
502 17-05-2015 00:00:00 14.40083 C 55.0333 %
503 18-05-2015 00:00:00 15.42833 C 52.3583 %
504 19-05-2015 00:00:00 13.43277 C 49.9160 %
505 20-05-2015 00:00:00 11.94083 C 55.4083 %
506 21-05-2015 00:00:00 11.78 C 56.4083 %
507 22-05-2015 00:00:00 15.78583 C 47.5667 %
508 23-05-2015 00:00:00 16.27917 C 52.1083 %
509 24-05-2015 00:00:00 17.4275 C 57.6750 %
510 25-05-2015 00:00:00 13.7775 C 75.4667 %
511 26-05-2015 00:00:00 11.96333 C 58.6000 %
512 27-05-2015 00:00:00 12.29333 C 53.7917 %
513 28-05-2015 00:00:00 14.33917 C 53.4000 %
514 29-05-2015 00:00:00 13.34417 C 59.1167 %
515 30-05-2015 00:00:00 12.57583 C 59.2667 %
516 31-05-2015 00:00:00 14.7625 C 58.4500 %
517 01-06-2015 00:00:00 15.34667 C 64.0000 %
518 02-06-2015 00:00:00 17.45167 C 60.0000 %
519 03-06-2015 00:00:00 18.26417 C 53.1417 %
520 04-06-2015 00:00:00 19.22 C 49.2167 %
521 05-06-2015 00:00:00 23.11167 C 51.2333 %
522 06-06-2015 00:00:00 20.8725 C 60.6750 %
523 07-06-2015 00:00:00 18.5075 C 45.7667 %
524 08-06-2015 00:00:00 16.31333 C 46.7083 %
525 09-06-2015 00:00:00 15.34083 C 43.8833 %
Sensor: Nr:Datum:Temp:Feuchte:
Aussen-T/F 526 10-06-2015 00:00:00 17.59417 C 47.5417 %
527 11-06-2015 00:00:00 20.22167 C 43.8250 %
528 12-06-2015 00:00:00 19.73167 C 62.0667 %
529 13-06-2015 00:00:00 19.42333 C 70.8167 %
530 14-06-2015 00:00:00 19.36333 C 56.1083 %
531 15-06-2015 00:00:00 18.30667 C 55.0333 %
532 16-06-2015 00:00:00 16.365 C 45.2083 %
533 17-06-2015 00:00:00 16.1175 C 49.9583 %
534 18-06-2015 00:00:00 17.6175 C 59.4333 %
535 19-06-2015 00:00:00 12.8725 C 67.0250 %
536 20-06-2015 00:00:00 13.48333 C 66.2250 %
537 21-06-2015 00:00:00 15.8562 C 67.7025 %
538 22-06-2015 00:00:00 12.87 C 76.3000 %
539 23-06-2015 00:00:00 11.54917 C 84.2667 %
540 24-06-2015 00:00:00 15.69333 C 64.0667 %
541 25-06-2015 00:00:00 18.91333 C 58.4917 %
542 26-06-2015 00:00:00 19.88167 C 59.7083 %
543 27-06-2015 00:00:00 20.10862 C 61.3448 %
544 28-06-2015 00:00:00 18.18333 C 57.8250 %
545 29-06-2015 00:00:00 22.07 C 49.5167 %
546 30-06-2015 00:00:00 22.66333 C 50.9083 %
547 01-07-2015 00:00:00 25.10083 C 48.9333 %
548 02-07-2015 00:00:00 27.395 C 48.2250 %
549 03-07-2015 00:00:00 27.8825 C 47.1750 %
550 04-07-2015 00:00:00 28.28667 C 49.8167 %
Sensor: Nr:Datum:Temp:Feuchte:
Aussen-T/F 551 05-07-2015 00:00:00 27.28 C 47.5083 %
552 06-07-2015 00:00:00 22.0075 C 56.0833 %
553 07-07-2015 00:00:00 22.37583 C 51.2500 %
554 08-07-2015 00:00:00 17.825 C 55.9333 %
555 09-07-2015 00:00:00 17.09917 C 50.3417 %
556 10-07-2015 00:00:00 17.43417 C 47.0417 %
557 11-07-2015 00:00:00 21.45167 C 42.0333 %
558 12-07-2015 00:00:00 18.76167 C 56.9083 %
559 13-07-2015 00:00:00 17.3875 C 71.7500 %
560 14-07-2015 00:00:00 20.77083 C 57.6583 %
561 15-07-2015 00:00:00 21.76333 C 57.2167 %
562 16-07-2015 00:00:00 24.265 C 54.6750 %
563 17-07-2015 00:00:00 28.4475 C 37.8417 %
564 18-07-2015 00:00:00 24.14833 C 42.5417 %
565 19-07-2015 00:00:00 20.34667 C 63.1167 %
566 20-07-2015 00:00:00 21.0825 C 72.4167 %
567 21-07-2015 00:00:00 24.695 C 58.8083 %
568 22-07-2015 00:00:00 23.58083 C 55.3333 %
569 23-07-2015 00:00:00 20.82917 C 45.8417 %
570 24-07-2015 00:00:00 21.54 C 51.6667 %
571 25-07-2015 00:00:00 17.33667 C 64.7667 %
572 26-07-2015 00:00:00 15.33782 C 62.9412 %
573 27-07-2015 00:00:00 17.56583 C 67.1833 %
574 28-07-2015 00:00:00 17.15417 C 47.7833 %
575 29-07-2015 00:00:00 16.69 C 46.4167 %
Sensor: Nr:Datum:Temp:Feuchte:
Aussen-T/F 576 30-07-2015 00:00:00 13.83583 C 60.6417 %
577 31-07-2015 00:00:00 16.04333 C 56.5167 %
578 01-08-2015 00:00:00 19.1175 C 44.3917 %
579 02-08-2015 00:00:00 20.51583 C 47.2333 %
580 03-08-2015 00:00:00 23.50333 C 44.3083 %
581 04-08-2015 00:00:00 19.1575 C 64.7917 %
582 05-08-2015 00:00:00 20.32667 C 60.8500 %
583 06-08-2015 00:00:00 24.22667 C 51.2917 %
584 07-08-2015 00:00:00 26.84583 C 43.1000 %
585 08-08-2015 00:00:00 23.22583 C 56.8250 %
586 09-08-2015 00:00:00 22.54 C 54.8750 %
587 10-08-2015 00:00:00 20.13583 C 63.9667 %
588 11-08-2015 00:00:00 22.12917 C 54.1167 %
589 12-08-2015 00:00:00 23.5925 C 55.8667 %
590 13-08-2015 00:00:00 25.41083 C 52.2583 %
591 14-08-2015 00:00:00 24.8725 C 48.6583 %
592 15-08-2015 00:00:00 21.19667 C 51.7000 %
593 16-08-2015 00:00:00 15.85333 C 76.6667 %
594 17-08-2015 00:00:00 14.77917 C 76.5750 %
595 18-08-2015 00:00:00 15.985 C 67.1167 %
596 19-08-2015 00:00:00 15.55667 C 62.6583 %
597 20-08-2015 00:00:00 17.8975 C 56.5500 %
598 21-08-2015 00:00:00 18.76 C 55.2583 %
599 22-08-2015 00:00:00 18.9875 C 50.1583 %
600 23-08-2015 00:00:00 19.48417 C 48.7167 %
Sensor: Nr:Datum:Temp:Feuchte:
Aussen-T/F 601 24-08-2015 00:00:00 19.7175 C 67.7583 %
602 25-08-2015 00:00:00 17.94583 C 48.2417 %
603 26-08-2015 00:00:00 19.86833 C 48.8500 %
604 27-08-2015 00:00:00 18.44167 C 67.6167 %
605 28-08-2015 00:00:00 17.17167 C 72.7583 %
606 29-08-2015 00:00:00 20.18333 C 69.6583 %
607 30-08-2015 00:00:00 23.21917 C 66.6083 %
608 31-08-2015 00:00:00 24.31417 C 55.9917 %
609 01-09-2015 00:00:00 17.54 C 77.1833 %
610 02-09-2015 00:00:00 15.07917 C 71.6750 %
611 03-09-2015 00:00:00 14.1425 C 71.6833 %
612 04-09-2015 00:00:00 13.65917 C 64.6833 %
613 05-09-2015 00:00:00 13.05583 C 69.7417 %
614 06-09-2015 00:00:00 13.10917 C 56.4833 %
615 07-09-2015 00:00:00 13.455 C 71.1750 %
616 08-09-2015 00:00:00 15.4175 C 67.9250 %
617 09-09-2015 00:00:00 15.76167 C 57.9417 %
618 10-09-2015 00:00:00 12.94833 C 61.4583 %
619 11-09-2015 00:00:00 13.1675 C 62.5833 %
620 12-09-2015 00:00:00 15.18667 C 66.6583 %
621 13-09-2015 00:00:00 16.93167 C 79.4833 %
622 14-09-2015 00:00:00 15.35833 C 80.5417 %
623 15-09-2015 00:00:00 13.065 C 73.8583 %
624 16-09-2015 00:00:00 14.7 C 83.4250 %
625 17-09-2015 00:00:00 14.20833 C 80.5000 %
Sensor: Nr:Datum:Temp:Feuchte:
Aussen-T/F 626 18-09-2015 00:00:00 14.38667 C 73.0167 %
627 19-09-2015 00:00:00 14.08917 C 73.5250 %
628 20-09-2015 00:00:00 13.44417 C 70.9167 %
629 21-09-2015 00:00:00 12.42583 C 74.5917 %
630 22-09-2015 00:00:00 12.75833 C 80.1333 %
631 23-09-2015 00:00:00 11.50667 C 85.6250 %
632 24-09-2015 00:00:00 13.10833 C 79.6333 %
633 25-09-2015 00:00:00 13.78333 C 71.6917 %
634 26-09-2015 00:00:00 12.60917 C 72.9083 %
635 27-09-2015 00:00:00 11.13167 C 71.3417 %
636 28-09-2015 00:00:00 10.20667 C 70.9417 %
637 29-09-2015 00:00:00 10.215 C 70.4167 %
638 30-09-2015 00:00:00 10.06583 C 66.1000 %
639 01-10-2015 00:00:00 9.29917 C 61.2667 %
640 02-10-2015 00:00:00 8.59917 C 74.0083 %
641 03-10-2015 00:00:00 10.44917 C 75.1833 %
642 04-10-2015 00:00:00 12.28417 C 78.5750 %
643 05-10-2015 00:00:00 11.84583 C 79.5750 %
644 06-10-2015 00:00:00 15.80167 C 83.4417 %
645 07-10-2015 00:00:00 14.7 C 74.2167 %
646 08-10-2015 00:00:00 13.32333 C 68.8000 %
647 09-10-2015 00:00:00 12.07083 C 80.7417 %
648 10-10-2015 00:00:00 12.105 C 72.4833 %
649 11-10-2015 00:00:00 7.89833 C 59.4083 %
650 12-10-2015 00:00:00 4.42167 C 68.4750 %
Sensor: Nr:Datum:Temp:Feuchte:
Aussen-T/F 651 13-10-2015 00:00:00 3.95167 C 78.6917 %
652 14-10-2015 00:00:00 3.28417 C 89.8583 %
653 15-10-2015 00:00:00 3.80417 C 90.4250 %
654 16-10-2015 00:00:00 6.35 C 81.6917 %
655 17-10-2015 00:00:00 6.735 C 73.5833 %
656 18-10-2015 00:00:00 7.18 C 77.1667 %
657 19-10-2015 00:00:00 8.16667 C 76.7333 %
658 20-10-2015 00:00:00 9.0175 C 82.7417 %
659 21-10-2015 00:00:00 9.47 C 80.4667 %
660 22-10-2015 00:00:00 10.8575 C 70.3000 %
661 23-10-2015 00:00:00 9.86917 C 85.9750 %
662 24-10-2015 00:00:00 10.69583 C 72.8083 %
663 25-10-2015 00:00:00 11.2568 C 79.4000 %
664 26-10-2015 00:00:00 8.69667 C 85.5250 %
665 27-10-2015 00:00:00 8.0525 C 82.0167 %
666 28-10-2015 00:00:00 9.38917 C 72.9917 %
667 29-10-2015 00:00:00 9.7475 C 80.2750 %
668 30-10-2015 00:00:00 7.32333 C 86.3250 %
669 31-10-2015 00:00:00 6.77583 C 83.6250 %
670 01-11-2015 00:00:00 6.29 C 87.0333 %
671 02-11-2015 00:00:00 4.25083 C 91.1250 %
672 03-11-2015 00:00:00 4.7125 C 84.8500 %
673 04-11-2015 00:00:00 7.2225 C 83.8667 %
674 05-11-2015 00:00:00 9.55417 C 87.5250 %
675 06-11-2015 00:00:00 12.8575 C 78.4333 %
Sensor: Nr:Datum:Temp:Feuchte:
Aussen-T/F 676 07-11-2015 00:00:00 15.96833 C 79.7667 %
677 08-11-2015 00:00:00 12.09333 C 87.1417 %
678 09-11-2015 00:00:00 14.4975 C 61.9250 %
679 10-11-2015 00:00:00 12.95167 C 58.9500 %
680 11-11-2015 00:00:00 11.47167 C 60.8250 %
681 12-11-2015 00:00:00 11.10833 C 67.1417 %
682 13-11-2015 00:00:00 10.18 C 68.2667 %
683 14-11-2015 00:00:00 8.45667 C 58.9833 %
684 15-11-2015 00:00:00 12.26417 C 57.5667 %
685 16-11-2015 00:00:00 11.36917 C 57.1750 %
686 17-11-2015 00:00:00 13.67167 C 66.9000 %
687 18-11-2015 00:00:00 13.59083 C 45.0667 %
688 19-11-2015 00:00:00 11.8225 C 65.8333 %
689 20-11-2015 00:00:00 7.22083 C 84.0833 %
690 21-11-2015 00:00:00 3.41917 C 75.5000 %
691 22-11-2015 00:00:00 2.13833 C 82.4667 %
692 23-11-2015 00:00:00 1.88 C 76.4500 %
693 24-11-2015 00:00:00 1.28583 C 77.3333 %
694 25-11-2015 00:00:00 4.00833 C 74.3167 %
695 26-11-2015 00:00:00 4.22333 C 78.5917 %
696 27-11-2015 00:00:00 1.90417 C 82.8750 %
697 28-11-2015 00:00:00 3.72167 C 64.4917 %
698 29-11-2015 00:00:00 8.60917 C 59.6500 %
699 30-11-2015 00:00:00 9.42083 C 70.1917 %
700 01-12-2015 00:00:00 10.81583 C 72.9000 %
Sensor: Nr:Datum:Temp:Feuchte:
Aussen-T/F 701 02-12-2015 00:00:00 9.32917 C 63.8917 %
702 03-12-2015 00:00:00 6.91 C 65.0667 %
703 04-12-2015 00:00:00 6.15833 C 77.1333 %
704 05-12-2015 00:00:00 5.30417 C 71.3500 %
705 06-12-2015 00:00:00 7.65083 C 65.3750 %
706 07-12-2015 00:00:00 7.24333 C 79.5333 %
707 08-12-2015 00:00:00 3.85333 C 92.6417 %
708 09-12-2015 00:00:00 5.81417 C 86.4083 %
709 10-12-2015 00:00:00 2.24167 C 82.4000 %
710 11-12-2015 00:00:00 4.06583 C 76.6167 %
711 12-12-2015 00:00:00 7.5325 C 83.2833 %
712 13-12-2015 00:00:00 8.14 C 69.1250 %
713 14-12-2015 00:00:00 5.15417 C 90.8417 %
714 15-12-2015 00:00:00 4.89833 C 89.1833 %
715 16-12-2015 00:00:00 9.15083 C 89.9750 %
716 17-12-2015 00:00:00 11.63417 C 75.1167 %
717 18-12-2015 00:00:00 10.56667 C 76.0500 %
718 19-12-2015 00:00:00 10.50417 C 68.5583 %
719 20-12-2015 00:00:00 7.115 C 88.6750 %
720 21-12-2015 00:00:00 9.43583 C 63.8417 %
721 22-12-2015 00:00:00 11.1725 C 48.5000 %
722 23-12-2015 00:00:00 9.01167 C 57.9417 %
723 24-12-2015 00:00:00 8.45833 C 72.2833 %
724 25-12-2015 00:00:00 10.48417 C 60.2500 %
725 26-12-2015 00:00:00 9.345 C 61.1667 %
Sensor: Nr:Datum:Temp:Feuchte:
Aussen-T/F 726 27-12-2015 00:00:00 6.45333 C 76.4917 %
727 28-12-2015 00:00:00 2.05083 C 89.9000 %
728 29-12-2015 00:00:00 2.285 C 91.8750 %
729 30-12-2015 00:00:00 3.93417 C 81.2500 %
730 31-12-2015 00:00:00 4.05417 C 73.4333 %
Sensor: Nr:Datum:Temp:Feuchte:
G-T/H 1 01-01-2014 00:00:00 8.4175 C 70.6667 %
2 02-01-2014 00:00:00 9.215 C 73.7167 %
3 03-01-2014 00:00:00 9.29583 C 74.0583 %
4 04-01-2014 00:00:00 9.55583 C 74.5083 %
5 05-01-2014 00:00:00 9.33417 C 73.8000 %
6 06-01-2014 00:00:00 9.06083 C 74.1167 %
7 07-01-2014 00:00:00 9.975 C 75.7000 %
8 08-01-2014 00:00:00 10.48583 C 75.9333 %
9 09-01-2014 00:00:00 10.20167 C 75.1667 %
10 10-01-2014 00:00:00 9.605 C 71.4417 %
11 11-01-2014 00:00:00 8.61167 C 70.1583 %
12 12-01-2014 00:00:00 7.43083 C 68.4667 %
13 13-01-2014 00:00:00 7.285 C 71.2583 %
14 14-01-2014 00:00:00 7.91917 C 74.1000 %
15 15-01-2014 00:00:00 7.71 C 73.9500 %
16 16-01-2014 00:00:00 8.135 C 75.6417 %
17 17-01-2014 00:00:00 8.64167 C 76.7083 %
18 18-01-2014 00:00:00 8.16833 C 74.1917 %
19 19-01-2014 00:00:00 8.02333 C 74.2667 %
20 20-01-2014 00:00:00 8.10083 C 74.7333 %
21 21-01-2014 00:00:00 8.01167 C 73.9667 %
22 22-01-2014 00:00:00 8.05 C 72.8417 %
23 23-01-2014 00:00:00 8.00583 C 72.4667 %
24 24-01-2014 00:00:00 7.95833 C 75.4333 %
25 25-01-2014 00:00:00 7.8725 C 74.2083 %
Sensor: Nr:Datum:Temp:Feuchte:
G-T/H 26 26-01-2014 00:00:00 8.45917 C 70.2750 %
27 27-01-2014 00:00:00 8.35917 C 69.6083 %
28 28-01-2014 00:00:00 8.21833 C 68.7083 %
29 29-01-2014 00:00:00 7.54833 C 66.7583 %
30 30-01-2014 00:00:00 7.32 C 65.5667 %
31 31-01-2014 00:00:00 6.56 C 67.2750 %
32 01-02-2014 00:00:00 6.8925 C 70.4167 %
33 02-02-2014 00:00:00 7.51167 C 71.7833 %
34 03-02-2014 00:00:00 6.795 C 69.3000 %
35 04-02-2014 00:00:00 7.26 C 71.6333 %
36 05-02-2014 00:00:00 7.47417 C 72.5333 %
37 06-02-2014 00:00:00 8.0025 C 75.2500 %
38 07-02-2014 00:00:00 8.81833 C 74.2833 %
39 08-02-2014 00:00:00 8.48917 C 73.8167 %
40 09-02-2014 00:00:00 8.31417 C 71.5083 %
41 10-02-2014 00:00:00 7.81083 C 69.0083 %
42 11-02-2014 00:00:00 7.9675 C 72.2500 %
43 12-02-2014 00:00:00 7.95917 C 70.2417 %
44 13-02-2014 00:00:00 7.95333 C 73.2500 %
45 14-02-2014 00:00:00 7.92 C 73.0250 %
46 15-02-2014 00:00:00 8.67083 C 74.5917 %
47 16-02-2014 00:00:00 9.01083 C 73.7333 %
48 17-02-2014 00:00:00 8.17 C 71.2167 %
49 18-02-2014 00:00:00 7.5075 C 70.7250 %
50 19-02-2014 00:00:00 8.15167 C 74.4417 %
Sensor: Nr:Datum:Temp:Feuchte:
G-T/H 51 20-02-2014 00:00:00 8.88083 C 74.9750 %
52 21-02-2014 00:00:00 9.35417 C 73.8917 %
53 22-02-2014 00:00:00 8.44417 C 72.0583 %
54 23-02-2014 00:00:00 8.4725 C 72.8417 %
55 24-02-2014 00:00:00 8.14167 C 70.8750 %
56 25-02-2014 00:00:00 7.97917 C 72.3500 %
57 26-02-2014 00:00:00 8.98833 C 74.4750 %
58 27-02-2014 00:00:00 9.05583 C 71.3000 %
59 28-02-2014 00:00:00 8.745 C 73.6250 %
60 01-03-2014 00:00:00 8.69083 C 73.3500 %
61 02-03-2014 00:00:00 7.92917 C 70.4750 %
62 03-03-2014 00:00:00 7.78333 C 72.2083 %
63 04-03-2014 00:00:00 7.7225 C 70.6500 %
64 05-03-2014 00:00:00 8.17833 C 70.9750 %
65 06-03-2014 00:00:00 7.95667 C 69.0500 %
66 07-03-2014 00:00:00 8.39664 C 66.3950 %
67 08-03-2014 00:00:00 9.38496 C 66.3982 %
68 09-03-2014 00:00:00 8.78333 C 66.2583 %
69 10-03-2014 00:00:00 8.63333 C 67.0083 %
70 11-03-2014 00:00:00 9.03333 C 68.1667 %
71 12-03-2014 00:00:00 9.35167 C 68.7417 %
72 13-03-2014 00:00:00 9.43833 C 66.6417 %
73 14-03-2014 00:00:00 9.13833 C 67.5000 %
74 15-03-2014 00:00:00 9.22083 C 70.8667 %
75 16-03-2014 00:00:00 9.97333 C 72.6917 %
Sensor: Nr:Datum:Temp:Feuchte:
G-T/H 76 17-03-2014 00:00:00 10.35167 C 73.3750 %
77 18-03-2014 00:00:00 10.5 C 73.9417 %
78 19-03-2014 00:00:00 10.67583 C 73.6000 %
79 20-03-2014 00:00:00 10.72667 C 71.7250 %
80 21-03-2014 00:00:00 11.41667 C 71.2500 %
81 22-03-2014 00:00:00 11.13417 C 70.1583 %
82 23-03-2014 00:00:00 9.90917 C 67.6250 %
83 24-03-2014 00:00:00 9.4625 C 66.6333 %
84 25-03-2014 00:00:00 9.25833 C 65.5583 %
85 26-03-2014 00:00:00 8.92333 C 64.8750 %
86 27-03-2014 00:00:00 9.00833 C 66.9833 %
87 28-03-2014 00:00:00 9.425 C 68.7917 %
88 29-03-2014 00:00:00 10.5025 C 64.0083 %
89 30-03-2014 00:00:00 10.59652 C 66.3391 %
90 31-03-2014 00:00:00 11.335 C 66.1750 %
91 01-04-2014 00:00:00 12.7925 C 63.0167 %
92 02-04-2014 00:00:00 14.6825 C 57.0750 %
93 03-04-2014 00:00:00 13.77083 C 63.2167 %
94 04-04-2014 00:00:00 14.86167 C 63.5000 %
95 05-04-2014 00:00:00 14.37833 C 66.5500 %
96 06-04-2014 00:00:00 13.3425 C 67.7083 %
97 07-04-2014 00:00:00 15.5925 C 64.2167 %
98 08-04-2014 00:00:00 14.91167 C 62.9500 %
99 09-04-2014 00:00:00 12.83186 C 58.7788 %
100 10-04-2014 00:00:00 12.4675 C 63.7667 %
Sensor: Nr:Datum:Temp:Feuchte:
G-T/H 101 11-04-2014 00:00:00 12.72083 C 66.1833 %
102 12-04-2014 00:00:00 13.15833 C 66.5417 %
103 13-04-2014 00:00:00 13.01417 C 65.9417 %
104 14-04-2014 00:00:00 12.50417 C 64.6500 %
105 15-04-2014 00:00:00 11.28083 C 64.1167 %
106 16-04-2014 00:00:00 11.215 C 58.2917 %
107 17-04-2014 00:00:00 11.22917 C 59.8333 %
108 18-04-2014 00:00:00 11.675 C 58.0083 %
109 19-04-2014 00:00:00 9.35667 C 62.6250 %
110 20-04-2014 00:00:00 11.9125 C 65.5083 %
111 21-04-2014 00:00:00 12.63333 C 66.2417 %
112 22-04-2014 00:00:00 13.54583 C 67.1000 %
113 23-04-2014 00:00:00 14.38333 C 65.5333 %
114 24-04-2014 00:00:00 14.26083 C 68.0333 %
115 25-04-2014 00:00:00 14.4725 C 68.8333 %
116 26-04-2014 00:00:00 15.43083 C 65.9417 %
117 27-04-2014 00:00:00 14.86639 C 67.4118 %
118 28-04-2014 00:00:00 14.57 C 63.8083 %
119 29-04-2014 00:00:00 14.48417 C 67.3917 %
120 30-04-2014 00:00:00 14.13554 C 69.5289 %
121 01-05-2014 00:00:00 15.09083 C 66.7250 %
122 02-05-2014 00:00:00 14.53167 C 67.7250 %
123 03-05-2014 00:00:00 13.44583 C 60.5667 %
124 04-05-2014 00:00:00 12.65833 C 59.3583 %
125 05-05-2014 00:00:00 12.77417 C 62.5750 %
Sensor: Nr:Datum:Temp:Feuchte:
G-T/H 126 06-05-2014 00:00:00 13.36917 C 65.2167 %
127 07-05-2014 00:00:00 13.8925 C 68.7333 %
128 08-05-2014 00:00:00 13.49833 C 69.0583 %
129 09-05-2014 00:00:00 13.85833 C 69.1417 %
130 10-05-2014 00:00:00 13.89083 C 68.0250 %
131 11-05-2014 00:00:00 13.3475 C 68.6250 %
132 12-05-2014 00:00:00 13.04083 C 67.3917 %
133 13-05-2014 00:00:00 12.96 C 68.6417 %
134 14-05-2014 00:00:00 13.0375 C 62.8333 %
135 15-05-2014 00:00:00 12.93333 C 63.6083 %
136 16-05-2014 00:00:00 13.87583 C 60.6000 %
137 17-05-2014 00:00:00 14.38333 C 62.0083 %
138 18-05-2014 00:00:00 14.70833 C 65.4917 %
139 19-05-2014 00:00:00 16.89 C 60.6333 %
140 20-05-2014 00:00:00 18.75 C 56.5250 %
141 21-05-2014 00:00:00 19.6325 C 58.2667 %
142 22-05-2014 00:00:00 18.89167 C 62.4667 %
143 23-05-2014 00:00:00 17.48 C 66.1167 %
144 24-05-2014 00:00:00 16.70417 C 64.5083 %
145 25-05-2014 00:00:00 15.93667 C 63.8000 %
146 26-05-2014 00:00:00 16.28167 C 67.4333 %
147 27-05-2014 00:00:00 16.28 C 69.2833 %
148 28-05-2014 00:00:00 15.63917 C 70.2417 %
149 29-05-2014 00:00:00 15.22083 C 69.9333 %
150 30-05-2014 00:00:00 15.05167 C 64.8583 %
Sensor: Nr:Datum:Temp:Feuchte:
G-T/H 151 31-05-2014 00:00:00 14.76917 C 63.2833 %
152 01-06-2014 00:00:00 15.46917 C 66.3500 %
153 02-06-2014 00:00:00 15.84083 C 64.9417 %
154 03-06-2014 00:00:00 16.17583 C 66.5083 %
155 04-06-2014 00:00:00 16.16333 C 68.2917 %
156 05-06-2014 00:00:00 15.67083 C 64.8417 %
157 06-06-2014 00:00:00 15.69417 C 63.4833 %
158 07-06-2014 00:00:00 17.08833 C 68.5417 %
159 08-06-2014 00:00:00 18.66667 C 70.1500 %
160 09-06-2014 00:00:00 19.94667 C 71.0833 %
161 10-06-2014 00:00:00 20.54833 C 69.1333 %
162 11-06-2014 00:00:00 20.49417 C 68.5833 %
163 12-06-2014 00:00:00 19.0825 C 66.8917 %
164 13-06-2014 00:00:00 18.65833 C 63.8750 %
165 14-06-2014 00:00:00 18.28667 C 62.2333 %
166 15-06-2014 00:00:00 17.62 C 63.2833 %
167 16-06-2014 00:00:00 17.2275 C 64.1917 %
168 17-06-2014 00:00:00 17.22417 C 65.7500 %
169 18-06-2014 00:00:00 17.375 C 66.3250 %
170 19-06-2014 00:00:00 17.47583 C 64.5417 %
171 20-06-2014 00:00:00 16.8825 C 65.8667 %
172 21-06-2014 00:00:00 16.61667 C 64.3250 %
173 22-06-2014 00:00:00 16.6625 C 63.2833 %
174 23-06-2014 00:00:00 16.9175 C 64.1750 %
175 24-06-2014 00:00:00 17.17417 C 65.2833 %
Sensor: Nr:Datum:Temp:Feuchte:
G-T/H 176 25-06-2014 00:00:00 16.9175 C 63.6417 %
177 26-06-2014 00:00:00 16.62917 C 61.0083 %
178 27-06-2014 00:00:00 17.06417 C 62.2083 %
179 28-06-2014 00:00:00 17.32167 C 66.2333 %
180 29-06-2014 00:00:00 16.6875 C 69.4083 %
181 30-06-2014 00:00:00 16.29333 C 68.2667 %
182 01-07-2014 00:00:00 16.9675 C 60.0917 %
183 02-07-2014 00:00:00 17.745 C 55.9417 %
184 03-07-2014 00:00:00 17.75583 C 59.3917 %
185 04-07-2014 00:00:00 18.50083 C 62.7083 %
186 05-07-2014 00:00:00 18.98833 C 65.4667 %
187 06-07-2014 00:00:00 19.21667 C 67.3000 %
188 07-07-2014 00:00:00 19.9525 C 58.9583 %
189 08-07-2014 00:00:00 18.97333 C 62.5583 %
190 09-07-2014 00:00:00 16.82583 C 67.1583 %
191 10-07-2014 00:00:00 16.5925 C 69.5667 %
192 11-07-2014 00:00:00 17.46583 C 71.2667 %
193 12-07-2014 00:00:00 18.0925 C 71.4167 %
194 13-07-2014 00:00:00 18.02833 C 72.0000 %
195 14-07-2014 00:00:00 18.41333 C 71.1750 %
196 15-07-2014 00:00:00 19.91417 C 63.6083 %
197 16-07-2014 00:00:00 21.85917 C 57.9417 %
198 17-07-2014 00:00:00 22.515 C 57.5500 %
199 18-07-2014 00:00:00 24.10833 C 54.2417 %
200 19-07-2014 00:00:00 22.7825 C 59.1583 %
Sensor: Nr:Datum:Temp:Feuchte:
G-T/H 201 20-07-2014 00:00:00 22.22833 C 64.1083 %
202 21-07-2014 00:00:00 21.21667 C 67.0167 %
203 22-07-2014 00:00:00 21.64417 C 68.6583 %
204 23-07-2014 00:00:00 23.08917 C 60.6833 %
205 24-07-2014 00:00:00 22.405 C 57.2167 %
206 25-07-2014 00:00:00 21.54 C 60.4167 %
207 26-07-2014 00:00:00 20.825 C 63.5917 %
208 27-07-2014 00:00:00 20.66417 C 65.7917 %
209 28-07-2014 00:00:00 20.84417 C 66.9333 %
210 29-07-2014 00:00:00 20.55333 C 69.0833 %
211 30-07-2014 00:00:00 20.4 C 67.0083 %
212 31-07-2014 00:00:00 20.0625 C 65.5500 %
213 01-08-2014 00:00:00 19.965 C 68.6333 %
214 02-08-2014 00:00:00 21.05833 C 69.7333 %
215 03-08-2014 00:00:00 21.155 C 70.5750 %
216 04-08-2014 00:00:00 21.04833 C 68.0000 %
217 05-08-2014 00:00:00 20.5525 C 63.7833 %
218 06-08-2014 00:00:00 20.38083 C 62.4333 %
219 07-08-2014 00:00:00 19.99333 C 66.6500 %
220 08-08-2014 00:00:00 20.70084 C 70.2185 %
221 09-08-2014 00:00:00 20.71083 C 69.7333 %
222 10-08-2014 00:00:00 20.08917 C 68.7667 %
223 11-08-2014 00:00:00 19.19 C 65.9083 %
224 12-08-2014 00:00:00 19.14333 C 59.7083 %
225 13-08-2014 00:00:00 18.75333 C 64.9000 %
Sensor: Nr:Datum:Temp:Feuchte:
G-T/H 226 14-08-2014 00:00:00 18.32833 C 65.2750 %
227 15-08-2014 00:00:00 17.98 C 68.0750 %
228 16-08-2014 00:00:00 17.27 C 69.4333 %
229 17-08-2014 00:00:00 17.1775 C 70.0417 %
230 18-08-2014 00:00:00 17.63 C 64.5000 %
231 19-08-2014 00:00:00 17.195 C 63.3167 %
232 20-08-2014 00:00:00 16.40083 C 64.1250 %
233 21-08-2014 00:00:00 15.94583 C 62.9083 %
234 22-08-2014 00:00:00 16.31333 C 64.1083 %
235 23-08-2014 00:00:00 16.15167 C 66.7167 %
236 24-08-2014 00:00:00 15.45 C 68.3750 %
237 25-08-2014 00:00:00 15.32167 C 71.4833 %
238 26-08-2014 00:00:00 15.875 C 73.4333 %
239 27-08-2014 00:00:00 16.25 C 73.1583 %
240 28-08-2014 00:00:00 17.3525 C 73.8417 %
241 29-08-2014 00:00:00 18.265 C 73.5583 %
242 30-08-2014 00:00:00 17.08 C 73.7000 %
243 31-08-2014 00:00:00 17.19667 C 73.1250 %
244 01-09-2014 00:00:00 16.70917 C 71.7167 %
245 02-09-2014 00:00:00 16.52917 C 72.5417 %
246 03-09-2014 00:00:00 16.59417 C 73.4000 %
247 04-09-2014 00:00:00 16.78917 C 74.0333 %
248 05-09-2014 00:00:00 17.9875 C 74.8500 %
249 06-09-2014 00:00:00 18.77417 C 75.6667 %
250 07-09-2014 00:00:00 18.30417 C 76.0083 %
Sensor: Nr:Datum:Temp:Feuchte:
G-T/H 251 08-09-2014 00:00:00 18.67417 C 70.1667 %
252 09-09-2014 00:00:00 18.07667 C 65.7833 %
253 10-09-2014 00:00:00 17.07583 C 66.1333 %
254 11-09-2014 00:00:00 16.73417 C 68.4417 %
255 12-09-2014 00:00:00 16.07417 C 68.7000 %
256 13-09-2014 00:00:00 16.46417 C 72.0000 %
257 14-09-2014 00:00:00 16.74167 C 73.5333 %
258 15-09-2014 00:00:00 16.895 C 74.0417 %
259 16-09-2014 00:00:00 17.9525 C 73.7083 %
260 17-09-2014 00:00:00 18.10833 C 72.9167 %
261 18-09-2014 00:00:00 17.5325 C 75.5083 %
262 19-09-2014 00:00:00 18.6475 C 78.8083 %
263 20-09-2014 00:00:00 17.78667 C 81.2167 %
264 21-09-2014 00:00:00 16.94833 C 80.1833 %
265 22-09-2014 00:00:00 15.92667 C 72.7250 %
266 23-09-2014 00:00:00 14.2925 C 67.6583 %
267 24-09-2014 00:00:00 14.0675 C 69.1583 %
268 25-09-2014 00:00:00 14.93167 C 71.0000 %
269 26-09-2014 00:00:00 15.16667 C 72.6250 %
270 27-09-2014 00:00:00 15.765 C 74.5750 %
271 28-09-2014 00:00:00 15.525 C 75.0750 %
272 29-09-2014 00:00:00 16.46833 C 76.8000 %
273 30-09-2014 00:00:00 16.60417 C 78.0417 %
274 01-10-2014 00:00:00 17.0425 C 77.1500 %
275 02-10-2014 00:00:00 16.42167 C 76.4917 %
Sensor: Nr:Datum:Temp:Feuchte:
G-T/H 276 03-10-2014 00:00:00 15.75333 C 76.9833 %
277 04-10-2014 00:00:00 15.44583 C 75.1333 %
278 05-10-2014 00:00:00 15.09583 C 76.1500 %
279 06-10-2014 00:00:00 15.25 C 77.0000 %
280 07-10-2014 00:00:00 15.26417 C 77.1917 %
281 08-10-2014 00:00:00 14.83083 C 78.1083 %
282 09-10-2014 00:00:00 15.4 C 78.9500 %
283 10-10-2014 00:00:00 15.29167 C 78.4333 %
284 11-10-2014 00:00:00 15.45333 C 79.0000 %
285 12-10-2014 00:00:00 14.96417 C 77.7500 %
286 13-10-2014 00:00:00 15.15833 C 78.6083 %
287 14-10-2014 00:00:00 14.8575 C 78.4500 %
288 15-10-2014 00:00:00 14.27833 C 78.2167 %
289 16-10-2014 00:00:00 14.41667 C 79.4667 %
290 17-10-2014 00:00:00 14.72333 C 79.9833 %
291 18-10-2014 00:00:00 14.7725 C 80.0167 %
292 19-10-2014 00:00:00 14.5575 C 81.0833 %
293 20-10-2014 00:00:00 15.14583 C 78.1083 %
294 21-10-2014 00:00:00 14.3925 C 75.7917 %
295 22-10-2014 00:00:00 12.79583 C 70.0750 %
296 23-10-2014 00:00:00 12.72917 C 76.0667 %
297 24-10-2014 00:00:00 12.91083 C 76.3833 %
298 25-10-2014 00:00:00 13.18833 C 78.3000 %
299 26-10-2014 00:00:00 13.5352 C 78.8400 %
300 27-10-2014 00:00:00 12.75667 C 76.8083 %
Sensor: Nr:Datum:Temp:Feuchte:
G-T/H 301 28-10-2014 00:00:00 12.25083 C 72.4417 %
302 29-10-2014 00:00:00 12.08167 C 73.0250 %
303 30-10-2014 00:00:00 12.88417 C 78.5250 %
304 31-10-2014 00:00:00 13.18333 C 81.5000 %
305 01-11-2014 00:00:00 13.24833 C 78.9333 %
306 02-11-2014 00:00:00 13.02083 C 79.7917 %
307 03-11-2014 00:00:00 13.45833 C 80.7917 %
308 04-11-2014 00:00:00 13.52417 C 80.6833 %
309 05-11-2014 00:00:00 12.92083 C 78.7667 %
310 06-11-2014 00:00:00 11.47917 C 72.8167 %
311 07-11-2014 00:00:00 10.24417 C 71.2000 %
312 08-11-2014 00:00:00 10.84917 C 76.0250 %
313 09-11-2014 00:00:00 10.3475 C 74.0250 %
314 10-11-2014 00:00:00 11.0125 C 77.2000 %
315 11-11-2014 00:00:00 10.78333 C 75.6500 %
316 12-11-2014 00:00:00 11.4225 C 78.0667 %
317 13-11-2014 00:00:00 11.80667 C 79.0000 %
318 14-11-2014 00:00:00 12.14 C 78.7833 %
319 15-11-2014 00:00:00 12.03583 C 78.3833 %
320 16-11-2014 00:00:00 12.005 C 78.9833 %
321 17-11-2014 00:00:00 11.45667 C 77.9083 %
322 18-11-2014 00:00:00 11.54417 C 79.0000 %
323 19-11-2014 00:00:00 11.5525 C 78.1917 %
324 20-11-2014 00:00:00 10.72 C 74.5917 %
325 21-11-2014 00:00:00 9.89917 C 72.6000 %
Sensor: Nr:Datum:Temp:Feuchte:
G-T/H 326 22-11-2014 00:00:00 9.36583 C 72.9667 %
327 23-11-2014 00:00:00 9.58667 C 76.2833 %
328 24-11-2014 00:00:00 9.97333 C 76.4667 %
329 25-11-2014 00:00:00 8.76 C 71.7500 %
330 26-11-2014 00:00:00 8.98417 C 73.9000 %
331 27-11-2014 00:00:00 9.49417 C 75.2417 %
332 28-11-2014 00:00:00 9.59 C 73.8417 %
333 29-11-2014 00:00:00 9.135 C 70.1500 %
334 30-11-2014 00:00:00 8.77083 C 69.6750 %
335 01-12-2014 00:00:00 7.97083 C 67.7833 %
336 02-12-2014 00:00:00 6.86667 C 65.2417 %
337 03-12-2014 00:00:00 7.35583 C 68.5083 %
338 04-12-2014 00:00:00 7.33083 C 67.9500 %
339 05-12-2014 00:00:00 7.93583 C 72.6667 %
340 06-12-2014 00:00:00 8.32333 C 74.1000 %
341 07-12-2014 00:00:00 8.33083 C 74.1000 %
342 08-12-2014 00:00:00 7.65833 C 72.2750 %
343 09-12-2014 00:00:00 7.27917 C 72.7750 %
344 10-12-2014 00:00:00 7.265 C 72.0833 %
345 11-12-2014 00:00:00 7.85667 C 75.6500 %
346 12-12-2014 00:00:00 8.585 C 76.8333 %
347 13-12-2014 00:00:00 8.79167 C 74.4333 %
348 14-12-2014 00:00:00 7.87377 C 72.3279 %
349 15-12-2014 00:00:00 7.2425 C 72.6083 %
350 16-12-2014 00:00:00 8.05126 C 75.7983 %
Sensor: Nr:Datum:Temp:Feuchte:
G-T/H 351 17-12-2014 00:00:00 8.30667 C 75.9417 %
352 18-12-2014 00:00:00 9.53167 C 78.0167 %
353 19-12-2014 00:00:00 10.68583 C 76.9333 %
354 20-12-2014 00:00:00 9.35167 C 70.2833 %
355 21-12-2014 00:00:00 9.10504 C 72.2857 %
356 22-12-2014 00:00:00 9.60167 C 74.4083 %
357 23-12-2014 00:00:00 10.33583 C 75.0167 %
358 24-12-2014 00:00:00 10.54583 C 74.2167 %
359 25-12-2014 00:00:00 9.69333 C 70.9833 %
360 26-12-2014 00:00:00 8.54417 C 69.3333 %
361 27-12-2014 00:00:00 7.8475 C 68.0667 %
362 28-12-2014 00:00:00 6.70333 C 62.4083 %
363 29-12-2014 00:00:00 5.9775 C 65.2500 %
364 30-12-2014 00:00:00 6.58083 C 70.4000 %
365 31-12-2014 00:00:00 7.3375 C 73.0417 %
366 01-01-2015 00:00:00 7.6775 C 72.1500 %
367 02-01-2015 00:00:00 7.65 C 71.8417 %
368 03-01-2015 00:00:00 7.49667 C 70.3167 %
369 04-01-2015 00:00:00 7.1875 C 71.9250 %
370 05-01-2015 00:00:00 6.81167 C 66.4250 %
371 06-01-2015 00:00:00 6.31417 C 67.2000 %
372 07-01-2015 00:00:00 6.57833 C 70.2000 %
373 08-01-2015 00:00:00 7.4925 C 72.5417 %
374 09-01-2015 00:00:00 8.6825 C 74.9750 %
375 10-01-2015 00:00:00 10.68083 C 76.1750 %
Sensor: Nr:Datum:Temp:Feuchte:
G-T/H 376 11-01-2015 00:00:00 9.68667 C 67.1583 %
377 12-01-2015 00:00:00 9.09 C 70.2500 %
378 13-01-2015 00:00:00 10.01333 C 71.3250 %
379 14-01-2015 00:00:00 9.83583 C 68.6667 %
380 15-01-2015 00:00:00 8.9725 C 69.8000 %
381 16-01-2015 00:00:00 9.63333 C 72.8000 %
382 17-01-2015 00:00:00 8.64583 C 69.6333 %
383 18-01-2015 00:00:00 7.1925 C 63.0917 %
384 19-01-2015 00:00:00 6.60583 C 62.7917 %
385 20-01-2015 00:00:00 6.77333 C 62.7167 %
386 21-01-2015 00:00:00 6.3125 C 61.4667 %
387 22-01-2015 00:00:00 6.92583 C 62.8250 %
388 23-01-2015 00:00:00 6.85 C 64.2500 %
389 24-01-2015 00:00:00 6.90667 C 62.2167 %
390 25-01-2015 00:00:00 6.98583 C 71.3583 %
391 26-01-2015 00:00:00 7.25083 C 73.0583 %
392 27-01-2015 00:00:00 7.69333 C 75.4750 %
393 28-01-2015 00:00:00 7.8275 C 74.7250 %
394 29-01-2015 00:00:00 7.26083 C 69.7250 %
395 30-01-2015 00:00:00 7.1 C 70.6750 %
396 31-01-2015 00:00:00 6.745 C 66.2500 %
397 01-02-2015 00:00:00 6.82 C 69.2083 %
398 02-02-2015 00:00:00 7.1025 C 70.7250 %
399 03-02-2015 00:00:00 6.69167 C 65.2917 %
400 04-02-2015 00:00:00 6.07583 C 64.2917 %
Sensor: Nr:Datum:Temp:Feuchte:
G-T/H 401 05-02-2015 00:00:00 5.6975 C 63.6583 %
402 06-02-2015 00:00:00 5.63333 C 62.8750 %
403 07-02-2015 00:00:00 5.60833 C 62.8417 %
404 08-02-2015 00:00:00 6.08167 C 65.9833 %
405 09-02-2015 00:00:00 6.77667 C 68.7083 %
406 10-02-2015 00:00:00 7.82833 C 71.9417 %
407 11-02-2015 00:00:00 8.04333 C 69.1167 %
408 12-02-2015 00:00:00 7.75917 C 65.3750 %
409 13-02-2015 00:00:00 7.4725 C 65.6083 %
410 14-02-2015 00:00:00 6.9375 C 65.3083 %
411 15-02-2015 00:00:00 7.18667 C 64.8917 %
412 16-02-2015 00:00:00 6.68583 C 64.1667 %
413 17-02-2015 00:00:00 7.5275 C 64.5000 %
414 18-02-2015 00:00:00 8.185 C 66.7917 %
415 19-02-2015 00:00:00 7.2275 C 61.3333 %
416 20-02-2015 00:00:00 7.71083 C 65.6417 %
417 21-02-2015 00:00:00 8.42 C 67.9667 %
418 22-02-2015 00:00:00 7.6475 C 65.4583 %
419 23-02-2015 00:00:00 7.175 C 66.7500 %
420 24-02-2015 00:00:00 7.2275 C 70.1333 %
421 25-02-2015 00:00:00 7.2925 C 70.4583 %
422 26-02-2015 00:00:00 7.8375 C 72.2833 %
423 27-02-2015 00:00:00 8.30833 C 72.0000 %
424 28-02-2015 00:00:00 6.84417 C 65.8333 %
425 01-03-2015 00:00:00 7.38167 C 67.8583 %
Sensor: Nr:Datum:Temp:Feuchte:
G-T/H 426 02-03-2015 00:00:00 8.42 C 68.2333 %
427 03-03-2015 00:00:00 7.475 C 65.9000 %
428 04-03-2015 00:00:00 7.65 C 68.4500 %
429 05-03-2015 00:00:00 7.585 C 70.0000 %
430 06-03-2015 00:00:00 7.16583 C 66.8500 %
431 07-03-2015 00:00:00 7.03667 C 65.6083 %
432 08-03-2015 00:00:00 7.45917 C 68.0500 %
433 09-03-2015 00:00:00 8.2575 C 70.6417 %
434 10-03-2015 00:00:00 8.42833 C 71.6167 %
435 11-03-2015 00:00:00 8.21667 C 70.0167 %
436 12-03-2015 00:00:00 7.26833 C 64.0167 %
437 13-03-2015 00:00:00 7.25417 C 62.8500 %
438 14-03-2015 00:00:00 7.70583 C 66.7333 %
439 15-03-2015 00:00:00 8.06667 C 68.9750 %
440 16-03-2015 00:00:00 7.55 C 64.5833 %
441 17-03-2015 00:00:00 7.88667 C 68.5583 %
442 18-03-2015 00:00:00 8.59 C 69.6917 %
443 19-03-2015 00:00:00 9.43667 C 71.4500 %
444 20-03-2015 00:00:00 9.5125 C 71.3167 %
445 21-03-2015 00:00:00 9.23917 C 70.6500 %
446 22-03-2015 00:00:00 8.74545 C 67.5289 %
447 23-03-2015 00:00:00 7.59417 C 63.2833 %
448 24-03-2015 00:00:00 8.16833 C 66.5500 %
449 25-03-2015 00:00:00 9.2225 C 69.1417 %
450 26-03-2015 00:00:00 9.5325 C 66.7917 %
Sensor: Nr:Datum:Temp:Feuchte:
G-T/H 451 27-03-2015 00:00:00 9.40833 C 66.3167 %
452 28-03-2015 00:00:00 9.67333 C 66.9333 %
453 29-03-2015 00:00:00 10.45478 C 70.4000 %
454 30-03-2015 00:00:00 10.31083 C 65.2500 %
455 31-03-2015 00:00:00 10.28583 C 65.0833 %
456 01-04-2015 00:00:00 9.45 C 61.7417 %
457 02-04-2015 00:00:00 9.125 C 62.6750 %
458 03-04-2015 00:00:00 8.76583 C 61.2667 %
459 04-04-2015 00:00:00 9.31417 C 63.2083 %
460 05-04-2015 00:00:00 8.58 C 60.8000 %
461 06-04-2015 00:00:00 8.60833 C 62.3000 %
462 07-04-2015 00:00:00 8.61083 C 63.5750 %
463 08-04-2015 00:00:00 8.96 C 63.3167 %
464 09-04-2015 00:00:00 9.85667 C 66.9083 %
465 10-04-2015 00:00:00 10.805 C 67.4500 %
466 11-04-2015 00:00:00 11.43417 C 66.7167 %
467 12-04-2015 00:00:00 11.4575 C 66.6917 %
468 13-04-2015 00:00:00 11.5775 C 66.7250 %
469 14-04-2015 00:00:00 11.26333 C 65.1250 %
470 15-04-2015 00:00:00 12.2475 C 67.9333 %
471 16-04-2015 00:00:00 12.9 C 68.0667 %
472 17-04-2015 00:00:00 12.79333 C 64.6583 %
473 18-04-2015 00:00:00 11.38833 C 59.6667 %
474 19-04-2015 00:00:00 10.67417 C 60.6583 %
475 20-04-2015 00:00:00 10.87 C 59.7250 %
Sensor: Nr:Datum:Temp:Feuchte:
G-T/H 476 21-04-2015 00:00:00 13.19083 C 54.3833 %
477 22-04-2015 00:00:00 12.6975 C 58.9083 %
478 23-04-2015 00:00:00 11.73833 C 61.1250 %
479 24-04-2015 00:00:00 11.9775 C 62.2250 %
480 25-04-2015 00:00:00 12.93167 C 66.2667 %
481 26-04-2015 00:00:00 13.24583 C 68.6917 %
482 27-04-2015 00:00:00 13.34833 C 69.2000 %
483 28-04-2015 00:00:00 11.89083 C 64.3333 %
484 29-04-2015 00:00:00 11.16667 C 61.7083 %
485 30-04-2015 00:00:00 12.04333 C 65.8333 %
486 01-05-2015 00:00:00 11.29333 C 65.6917 %
487 02-05-2015 00:00:00 11.58667 C 59.4000 %
488 03-05-2015 00:00:00 12.69833 C 65.7750 %
489 04-05-2015 00:00:00 13.4175 C 68.9250 %
490 05-05-2015 00:00:00 14.60308 C 69.0000 %
491 06-05-2015 00:00:00 14.5625 C 64.7667 %
492 07-05-2015 00:00:00 13.93583 C 63.4917 %
493 08-05-2015 00:00:00 13.885 C 63.8667 %
494 09-05-2015 00:00:00 14.42583 C 67.1250 %
495 10-05-2015 00:00:00 14.335 C 68.0333 %
496 11-05-2015 00:00:00 14.62917 C 68.3000 %
497 12-05-2015 00:00:00 15.545 C 69.8000 %
498 13-05-2015 00:00:00 14.80917 C 61.9917 %
499 14-05-2015 00:00:00 14.8 C 64.8583 %
500 15-05-2015 00:00:00 14.81083 C 67.7083 %
Sensor: Nr:Datum:Temp:Feuchte:
G-T/H 501 16-05-2015 00:00:00 14.17583 C 64.5750 %
502 17-05-2015 00:00:00 14.19833 C 66.5000 %
503 18-05-2015 00:00:00 14.45917 C 65.1583 %
504 19-05-2015 00:00:00 14.70336 C 62.5882 %
505 20-05-2015 00:00:00 14.285 C 61.3583 %
506 21-05-2015 00:00:00 13.67167 C 60.8917 %
507 22-05-2015 00:00:00 14.2 C 62.6500 %
508 23-05-2015 00:00:00 15.09417 C 64.1833 %
509 24-05-2015 00:00:00 15.51167 C 66.0667 %
510 25-05-2015 00:00:00 15.44167 C 67.6833 %
511 26-05-2015 00:00:00 14.56583 C 64.3667 %
512 27-05-2015 00:00:00 13.92167 C 61.9000 %
513 28-05-2015 00:00:00 14.09667 C 63.4417 %
514 29-05-2015 00:00:00 14.41083 C 66.2083 %
515 30-05-2015 00:00:00 14.2725 C 64.4167 %
516 31-05-2015 00:00:00 13.905 C 62.9500 %
517 01-06-2015 00:00:00 15 C 67.3083 %
518 02-06-2015 00:00:00 15.0325 C 66.7583 %
519 03-06-2015 00:00:00 15.72083 C 67.7250 %
520 04-06-2015 00:00:00 16.01917 C 67.6000 %
521 05-06-2015 00:00:00 17.0325 C 68.6917 %
522 06-06-2015 00:00:00 18.33167 C 69.6917 %
523 07-06-2015 00:00:00 17.33583 C 63.9667 %
524 08-06-2015 00:00:00 16.80667 C 62.2833 %
525 09-06-2015 00:00:00 16.3075 C 60.2500 %
Sensor: Nr:Datum:Temp:Feuchte:
G-T/H 526 10-06-2015 00:00:00 15.97333 C 63.2417 %
527 11-06-2015 00:00:00 17.04083 C 65.1750 %
528 12-06-2015 00:00:00 17.6475 C 66.8667 %
529 13-06-2015 00:00:00 17.74417 C 69.4250 %
530 14-06-2015 00:00:00 17.46333 C 68.0500 %
531 15-06-2015 00:00:00 17.66333 C 67.1417 %
532 16-06-2015 00:00:00 17.08667 C 62.2083 %
533 17-06-2015 00:00:00 16.53083 C 59.9583 %
534 18-06-2015 00:00:00 16.97917 C 64.2333 %
535 19-06-2015 00:00:00 16.2025 C 63.4083 %
536 20-06-2015 00:00:00 15.62667 C 66.2917 %
537 21-06-2015 00:00:00 15.70413 C 68.0579 %
538 22-06-2015 00:00:00 15.6825 C 68.9417 %
539 23-06-2015 00:00:00 14.70917 C 69.2083 %
540 24-06-2015 00:00:00 14.74417 C 70.1583 %
541 25-06-2015 00:00:00 15.75583 C 70.2250 %
542 26-06-2015 00:00:00 16.96 C 70.9417 %
543 27-06-2015 00:00:00 18.00603 C 70.2500 %
544 28-06-2015 00:00:00 17.55833 C 67.8250 %
545 29-06-2015 00:00:00 18.61083 C 67.1667 %
546 30-06-2015 00:00:00 18.97333 C 65.3917 %
547 01-07-2015 00:00:00 19.56417 C 65.4833 %
548 02-07-2015 00:00:00 20.71917 C 67.3083 %
549 03-07-2015 00:00:00 22.09333 C 67.5333 %
550 04-07-2015 00:00:00 23.02333 C 66.0667 %
Sensor: Nr:Datum:Temp:Feuchte:
G-T/H 551 05-07-2015 00:00:00 23.00667 C 66.4583 %
552 06-07-2015 00:00:00 21.73583 C 63.1500 %
553 07-07-2015 00:00:00 20.9225 C 64.1583 %
554 08-07-2015 00:00:00 20.17417 C 62.1917 %
555 09-07-2015 00:00:00 18.86667 C 60.0250 %
556 10-07-2015 00:00:00 18.11167 C 57.7167 %
557 11-07-2015 00:00:00 20.0325 C 52.9917 %
558 12-07-2015 00:00:00 19.95167 C 59.6083 %
559 13-07-2015 00:00:00 18.8825 C 64.7917 %
560 14-07-2015 00:00:00 18.82833 C 67.3417 %
561 15-07-2015 00:00:00 20.49667 C 63.8917 %
562 16-07-2015 00:00:00 20.81917 C 66.0000 %
563 17-07-2015 00:00:00 23.54583 C 55.9833 %
564 18-07-2015 00:00:00 22.705 C 60.1667 %
565 19-07-2015 00:00:00 21.30417 C 63.4167 %
566 20-07-2015 00:00:00 21.16667 C 70.0917 %
567 21-07-2015 00:00:00 22.84 C 66.7833 %
568 22-07-2015 00:00:00 23.2075 C 64.8667 %
569 23-07-2015 00:00:00 22.08917 C 55.4167 %
570 24-07-2015 00:00:00 21.55833 C 57.6333 %
571 25-07-2015 00:00:00 20.4825 C 59.9167 %
572 26-07-2015 00:00:00 18.76387 C 59.6723 %
573 27-07-2015 00:00:00 18.50833 C 64.7833 %
574 28-07-2015 00:00:00 18.6175 C 55.4750 %
575 29-07-2015 00:00:00 18.64917 C 50.9833 %
Sensor: Nr:Datum:Temp:Feuchte:
G-T/H 576 30-07-2015 00:00:00 17.90333 C 55.0083 %
577 31-07-2015 00:00:00 17.51667 C 56.3750 %
578 01-08-2015 00:00:00 17.9775 C 60.4250 %
579 02-08-2015 00:00:00 19.4225 C 58.7000 %
580 03-08-2015 00:00:00 20.1325 C 58.5833 %
581 04-08-2015 00:00:00 20.325 C 61.9083 %
582 05-08-2015 00:00:00 19.47833 C 64.3583 %
583 06-08-2015 00:00:00 20.25917 C 64.3583 %
584 07-08-2015 00:00:00 21.64083 C 65.0917 %
585 08-08-2015 00:00:00 22.08917 C 67.8167 %
586 09-08-2015 00:00:00 21.58083 C 67.9583 %
587 10-08-2015 00:00:00 21.44333 C 67.1417 %
588 11-08-2015 00:00:00 20.96333 C 67.0833 %
589 12-08-2015 00:00:00 21.32417 C 68.4000 %
590 13-08-2015 00:00:00 21.7175 C 68.6917 %
591 14-08-2015 00:00:00 22.36583 C 68.3750 %
592 15-08-2015 00:00:00 21.69333 C 66.6833 %
593 16-08-2015 00:00:00 20.2775 C 67.3583 %
594 17-08-2015 00:00:00 18.54417 C 68.6917 %
595 18-08-2015 00:00:00 18.02417 C 65.2417 %
596 19-08-2015 00:00:00 17.90417 C 60.9667 %
597 20-08-2015 00:00:00 19.13083 C 58.4750 %
598 21-08-2015 00:00:00 19.29417 C 60.4167 %
599 22-08-2015 00:00:00 18.915 C 60.9667 %
600 23-08-2015 00:00:00 18.9 C 61.1250 %
Sensor: Nr:Datum:Temp:Feuchte:
G-T/H 601 24-08-2015 00:00:00 19.19083 C 65.2833 %
602 25-08-2015 00:00:00 18.72667 C 64.5750 %
603 26-08-2015 00:00:00 18.58917 C 65.1833 %
604 27-08-2015 00:00:00 19.03083 C 67.3000 %
605 28-08-2015 00:00:00 18.38333 C 69.0250 %
606 29-08-2015 00:00:00 18.38417 C 70.4583 %
607 30-08-2015 00:00:00 19.39 C 72.3917 %
608 31-08-2015 00:00:00 20.6975 C 69.4083 %
609 01-09-2015 00:00:00 20.15 C 70.1583 %
610 02-09-2015 00:00:00 18.33167 C 68.7667 %
611 03-09-2015 00:00:00 17.54583 C 67.2417 %
612 04-09-2015 00:00:00 16.6275 C 64.0667 %
613 05-09-2015 00:00:00 14.8325 C 67.1583 %
614 06-09-2015 00:00:00 15.50833 C 66.5667 %
615 07-09-2015 00:00:00 15.67333 C 69.1250 %
616 08-09-2015 00:00:00 16.0075 C 71.3833 %
617 09-09-2015 00:00:00 16.68 C 65.9000 %
618 10-09-2015 00:00:00 15.92 C 64.2000 %
619 11-09-2015 00:00:00 15.59583 C 63.3917 %
620 12-09-2015 00:00:00 15.57 C 65.8583 %
621 13-09-2015 00:00:00 16.57667 C 71.0667 %
622 14-09-2015 00:00:00 16.69 C 71.9500 %
623 15-09-2015 00:00:00 15.7175 C 69.5500 %
624 16-09-2015 00:00:00 15.56417 C 72.2167 %
625 17-09-2015 00:00:00 15.93583 C 73.4417 %
Sensor: Nr:Datum:Temp:Feuchte:
G-T/H 626 18-09-2015 00:00:00 15.6125 C 73.4833 %
627 19-09-2015 00:00:00 15.85667 C 71.3750 %
628 20-09-2015 00:00:00 15.74917 C 72.2333 %
629 21-09-2015 00:00:00 15.62167 C 69.7583 %
630 22-09-2015 00:00:00 15.61417 C 71.9750 %
631 23-09-2015 00:00:00 14.74167 C 72.0667 %
632 24-09-2015 00:00:00 15.12083 C 72.9833 %
633 25-09-2015 00:00:00 15.3225 C 73.5083 %
634 26-09-2015 00:00:00 15.25667 C 72.2500 %
635 27-09-2015 00:00:00 14.47833 C 70.7250 %
636 28-09-2015 00:00:00 13.82083 C 63.8500 %
637 29-09-2015 00:00:00 13.9225 C 64.3833 %
638 30-09-2015 00:00:00 13.78667 C 63.5833 %
639 01-10-2015 00:00:00 12.79667 C 62.8583 %
640 02-10-2015 00:00:00 11.94833 C 64.4333 %
641 03-10-2015 00:00:00 12.395 C 70.0000 %
642 04-10-2015 00:00:00 13.28417 C 73.1000 %
643 05-10-2015 00:00:00 13.6925 C 73.3583 %
644 06-10-2015 00:00:00 14.75417 C 74.7000 %
645 07-10-2015 00:00:00 15.23833 C 74.9833 %
646 08-10-2015 00:00:00 15.18667 C 73.9750 %
647 09-10-2015 00:00:00 14.90167 C 74.2417 %
648 10-10-2015 00:00:00 14.54667 C 73.4250 %
649 11-10-2015 00:00:00 13.0525 C 61.8500 %
650 12-10-2015 00:00:00 11.29 C 60.7667 %
Sensor: Nr:Datum:Temp:Feuchte:
G-T/H 651 13-10-2015 00:00:00 10.26417 C 62.5750 %
652 14-10-2015 00:00:00 10.07 C 64.2000 %
653 15-10-2015 00:00:00 10.03 C 67.6500 %
654 16-10-2015 00:00:00 10.35583 C 70.7583 %
655 17-10-2015 00:00:00 10.84417 C 70.2250 %
656 18-10-2015 00:00:00 11.1475 C 71.3417 %
657 19-10-2015 00:00:00 11.18917 C 70.2667 %
658 20-10-2015 00:00:00 11.92083 C 73.4083 %
659 21-10-2015 00:00:00 12.1125 C 74.2667 %
660 22-10-2015 00:00:00 12.43083 C 74.8083 %
661 23-10-2015 00:00:00 12.8525 C 74.9750 %
662 24-10-2015 00:00:00 12.94083 C 73.2333 %
663 25-10-2015 00:00:00 12.9792 C 75.2880 %
664 26-10-2015 00:00:00 12.87083 C 74.4417 %
665 27-10-2015 00:00:00 11.90417 C 71.7000 %
666 28-10-2015 00:00:00 12.22417 C 74.5667 %
667 29-10-2015 00:00:00 12.4025 C 76.0083 %
668 30-10-2015 00:00:00 11.73667 C 72.8167 %
669 31-10-2015 00:00:00 11.19583 C 71.7583 %
670 01-11-2015 00:00:00 11.01 C 71.9750 %
671 02-11-2015 00:00:00 10.25583 C 69.3417 %
672 03-11-2015 00:00:00 9.9 C 70.3417 %
673 04-11-2015 00:00:00 10.06333 C 72.9667 %
674 05-11-2015 00:00:00 11.00667 C 76.0333 %
675 06-11-2015 00:00:00 12.04833 C 77.4500 %
Sensor: Nr:Datum:Temp:Feuchte:
G-T/H 676 07-11-2015 00:00:00 13.56417 C 78.3083 %
677 08-11-2015 00:00:00 13.79583 C 78.0000 %
678 09-11-2015 00:00:00 13.61583 C 78.0000 %
679 10-11-2015 00:00:00 13.80667 C 77.5667 %
680 11-11-2015 00:00:00 13.58 C 75.5167 %
681 12-11-2015 00:00:00 13.18583 C 76.2500 %
682 13-11-2015 00:00:00 12.58833 C 74.3167 %
683 14-11-2015 00:00:00 11.79167 C 70.2667 %
684 15-11-2015 00:00:00 12.18917 C 75.3083 %
685 16-11-2015 00:00:00 12.73 C 76.3750 %
686 17-11-2015 00:00:00 13.1775 C 77.0250 %
687 18-11-2015 00:00:00 13.73417 C 75.3917 %
688 19-11-2015 00:00:00 13.50583 C 75.1167 %
689 20-11-2015 00:00:00 12.18583 C 73.3667 %
690 21-11-2015 00:00:00 10.22417 C 66.4333 %
691 22-11-2015 00:00:00 8.77167 C 65.9583 %
692 23-11-2015 00:00:00 8.46833 C 67.1833 %
693 24-11-2015 00:00:00 8.06917 C 63.9917 %
694 25-11-2015 00:00:00 8.435 C 70.2917 %
695 26-11-2015 00:00:00 8.96833 C 72.8250 %
696 27-11-2015 00:00:00 8.3625 C 67.3417 %
697 28-11-2015 00:00:00 8.02333 C 67.4417 %
698 29-11-2015 00:00:00 8.965 C 72.4583 %
699 30-11-2015 00:00:00 10.345 C 74.4000 %
700 01-12-2015 00:00:00 11.16167 C 75.7250 %
Sensor: Nr:Datum:Temp:Feuchte:
G-T/H 701 02-12-2015 00:00:00 11.5875 C 75.8583 %
702 03-12-2015 00:00:00 11.085 C 72.3083 %
703 04-12-2015 00:00:00 10.09583 C 70.4250 %
704 05-12-2015 00:00:00 9.69167 C 72.4167 %
705 06-12-2015 00:00:00 9.48167 C 73.3917 %
706 07-12-2015 00:00:00 10.12083 C 75.0750 %
707 08-12-2015 00:00:00 9.17917 C 71.0417 %
708 09-12-2015 00:00:00 9.33333 C 74.2750 %
709 10-12-2015 00:00:00 8.84 C 70.2167 %
710 11-12-2015 00:00:00 8.05417 C 68.8833 %
711 12-12-2015 00:00:00 9.27583 C 74.2583 %
712 13-12-2015 00:00:00 10.04333 C 75.4167 %
713 14-12-2015 00:00:00 9.92917 C 75.1000 %
714 15-12-2015 00:00:00 8.91417 C 73.0167 %
715 16-12-2015 00:00:00 9.75667 C 76.1250 %
716 17-12-2015 00:00:00 11.36167 C 76.8583 %
717 18-12-2015 00:00:00 11.77417 C 77.0000 %
718 19-12-2015 00:00:00 12.04333 C 76.6167 %
719 20-12-2015 00:00:00 10.83917 C 74.4583 %
720 21-12-2015 00:00:00 10.93667 C 76.5083 %
721 22-12-2015 00:00:00 11.40833 C 76.6833 %
722 23-12-2015 00:00:00 11.51 C 76.4250 %
723 24-12-2015 00:00:00 10.82167 C 76.2250 %
724 25-12-2015 00:00:00 11.42167 C 77.0000 %
725 26-12-2015 00:00:00 11.68 C 77.0000 %
Sensor: Nr:Datum:Temp:Feuchte:
G-T/H 726 27-12-2015 00:00:00 10.6275 C 76.1250 %
727 28-12-2015 00:00:00 8.98083 C 70.9167 %
728 29-12-2015 00:00:00 7.58917 C 69.2083 %
729 30-12-2015 00:00:00 8.2025 C 73.7833 %
730 31-12-2015 00:00:00 8.56 C 74.3250 %

Maximal/Minimal-Werte vom 01.01.2014 - 31.12.2015

Sensor Min Max Avg
Temp
(Aussen-T/F)
-6.4 °C
07-02-2015  08:16:17
44.1 °C
01-07-2015  18:22:17
11.42 °C
Feuchte
(Aussen-T/F)
20 %
08-03-2014  12:16:17
95 %
03-01-2014  01:49:17
70.51 %
Temp
(G-T/H)
2 °C
21-01-2015  13:50:17
28.5 °C
18-07-2014  18:33:17
13.18 °C
Feuchte
(G-T/H)
32 %
17-07-2015  14:23:17
84 %
20-09-2014  19:17:17
68.87 %

Die Daten stammen von einer Davis Vantage Pro 2 Wetter-Station und werden unter Linux mit der Software wview2wettercgi und aufbereitet. Alle Angaben erfolgen ohne Gewähr für ihre Vollständigkeit oder Richtigkeit.
Kontakt: Rainer Krienke krienke@uni-koblenz.de . Meine Webseiten an der Uni Koblenz oder privat.
Version: $Revision: 0.78 $